<?xml version="1.0" encoding="UTF-8" standalone="no" ?><gpx xmlns="http://www.topografix.com/GPX/1/1" xmlns:gpxx="http://www.garmin.com/xmlschemas/GpxExtensions/v3" xmlns:wptx1="http://www.garmin.com/xmlschemas/WaypointExtension/v1" xmlns:gpxtpx="http://www.garmin.com/xmlschemas/TrackPointExtension/v1" creator="GuideVTT.com" version="1.1" xmlns:xsi="http://www.w3.org/2001/XMLSchema-instance" xsi:schemaLocation="http://www.topografix.com/GPX/1/1 http://www.topografix.com/GPX/1/1/gpx.xsd http://www.garmin.com/xmlschemas/GpxExtensions/v3 http://www8.garmin.com/xmlschemas/GpxExtensionsv3.xsd http://www.garmin.com/xmlschemas/WaypointExtension/v1 http://www8.garmin.com/xmlschemas/WaypointExtensionv1.xsd http://www.garmin.com/xmlschemas/TrackPointExtension/v1 http://www.garmin.com/xmlschemas/TrackPointExtensionv1.xsd">
<metadata><link href="http://www.garmin.com"><text>Garmin International</text></link><time>2013-06-22T15:13:50Z</time></metadata>
<trk><name>hattigny-amling_fr.gpx</name><extensions><gpxx:TrackExtension><gpxx:DisplayColor>Cyan</gpxx:DisplayColor></gpxx:TrackExtension></extensions><trkseg>
<trkpt lat="48.62251698" lon="6.99910196"><ele>334.3999939368</ele><time>2011-04-29T11:31:30Z</time></trkpt>
<trkpt lat="48.62267297" lon="6.99905394"><ele>332.6000060712</ele><time>2011-04-29T11:31:37Z</time></trkpt>
<trkpt lat="48.62282099" lon="6.99921093"><ele>331.6000060392</ele><time>2011-04-29T11:31:42Z</time></trkpt>
<trkpt lat="48.62291696" lon="6.99949893"><ele>331.7999877576</ele><time>2011-04-29T11:31:47Z</time></trkpt>
<trkpt lat="48.62293096" lon="6.99985592"><ele>333.2000121864</ele><time>2011-04-29T11:31:53Z</time></trkpt>
<trkpt lat="48.62292493" lon="6.99991593"><ele>333.3999939048</ele><time>2011-04-29T11:31:54Z</time></trkpt>
<trkpt lat="48.62297899" lon="7.00022799"><ele>333.3999939048</ele><time>2011-04-29T11:31:59Z</time></trkpt>
<trkpt lat="48.62306499" lon="7.00040594"><ele>332.3999938728</ele><time>2011-04-29T11:32:02Z</time></trkpt>
<trkpt lat="48.62312299" lon="7.00070794"><ele>335.7999878856</ele><time>2011-04-29T11:32:06Z</time></trkpt>
<trkpt lat="48.62311696" lon="7.00087692"><ele>336.6000061992</ele><time>2011-04-29T11:32:08Z</time></trkpt>
<trkpt lat="48.62318795" lon="7.00119794"><ele>336.000000084</ele><time>2011-04-29T11:32:12Z</time></trkpt>
<trkpt lat="48.62334897" lon="7.00132099"><ele>334.00000002</ele><time>2011-04-29T11:32:15Z</time></trkpt>
<trkpt lat="48.62362197" lon="7.00128998"><ele>328.2000123312</ele><time>2011-04-29T11:32:20Z</time></trkpt>
<trkpt lat="48.62368592" lon="7.00124295"><ele>327.0000001008</ele><time>2011-04-29T11:32:23Z</time></trkpt>
<trkpt lat="48.62369296" lon="7.00124899"><ele>326.7999879024</ele><time>2011-04-29T11:32:25Z</time></trkpt>
<trkpt lat="48.62366497" lon="7.00127397"><ele>327.3999940176</ele><time>2011-04-29T11:32:36Z</time></trkpt>
<trkpt lat="48.62357997" lon="7.00137497"><ele>328.99999986</ele><time>2011-04-29T11:32:43Z</time></trkpt>
<trkpt lat="48.62348392" lon="7.00159994"><ele>330.7999877256</ele><time>2011-04-29T11:32:49Z</time></trkpt>
<trkpt lat="48.62348492" lon="7.00169893"><ele>330.3999938088</ele><time>2011-04-29T11:32:51Z</time></trkpt>
<trkpt lat="48.62359397" lon="7.00178795"><ele>327.3999940176</ele><time>2011-04-29T11:32:55Z</time></trkpt>
<trkpt lat="48.62363798" lon="7.00175400"><ele>326.7999879024</ele><time>2011-04-29T11:32:56Z</time></trkpt>
<trkpt lat="48.62397795" lon="7.00141596"><ele>320.600005992</ele><time>2011-04-29T11:33:02Z</time></trkpt>
<trkpt lat="48.62443694" lon="7.00095797"><ele>316.200012252</ele><time>2011-04-29T11:33:08Z</time></trkpt>
<trkpt lat="48.62480197" lon="7.00059998"><ele>315.6000061368</ele><time>2011-04-29T11:33:13Z</time></trkpt>
<trkpt lat="48.62501697" lon="7.00037593"><ele>315.6000061368</ele><time>2011-04-29T11:33:17Z</time></trkpt>
<trkpt lat="48.62524294" lon="7.00015792"><ele>317.200012284</ele><time>2011-04-29T11:33:23Z</time></trkpt>
<trkpt lat="48.62540597" lon="7.00010293"><ele>318.0000001176</ele><time>2011-04-29T11:33:28Z</time></trkpt>
<trkpt lat="48.62550496" lon="7.00017493"><ele>318.0000001176</ele><time>2011-04-29T11:33:31Z</time></trkpt>
<trkpt lat="48.62582800" lon="7.00023495"><ele>319.0000001496</ele><time>2011-04-29T11:33:38Z</time></trkpt>
<trkpt lat="48.62612899" lon="7.00010595"><ele>322.7999877744</ele><time>2011-04-29T11:33:46Z</time></trkpt>
<trkpt lat="48.62635195" lon="6.99993295"><ele>325.600006152</ele><time>2011-04-29T11:33:52Z</time></trkpt>
<trkpt lat="48.62664197" lon="6.99965894"><ele>328.600006248</ele><time>2011-04-29T11:33:59Z</time></trkpt>
<trkpt lat="48.62698395" lon="6.99935200"><ele>329.2000120584</ele><time>2011-04-29T11:34:06Z</time></trkpt>
<trkpt lat="48.62734496" lon="6.99901496"><ele>330.6000060072</ele><time>2011-04-29T11:34:12Z</time></trkpt>
<trkpt lat="48.62767898" lon="6.99847894"><ele>327.2000122992</ele><time>2011-04-29T11:34:18Z</time></trkpt>
<trkpt lat="48.62772499" lon="6.99836696"><ele>326.2000122672</ele><time>2011-04-29T11:34:19Z</time></trkpt>
<trkpt lat="48.62786799" lon="6.99770898"><ele>317.3999940024</ele><time>2011-04-29T11:34:24Z</time></trkpt>
<trkpt lat="48.62791694" lon="6.99681295"><ele>309.0000001344</ele><time>2011-04-29T11:34:30Z</time></trkpt>
<trkpt lat="48.62786095" lon="6.99602597"><ele>306.0000000384</ele><time>2011-04-29T11:34:35Z</time></trkpt>
<trkpt lat="48.62782499" lon="6.99506298"><ele>299.2000123176</ele><time>2011-04-29T11:34:41Z</time></trkpt>
<trkpt lat="48.62786195" lon="6.99420995"><ele>294.7999877928</ele><time>2011-04-29T11:34:46Z</time></trkpt>
<trkpt lat="48.62796497" lon="6.99340495"><ele>296.2000122216</ele><time>2011-04-29T11:34:51Z</time></trkpt>
<trkpt lat="48.62801392" lon="6.99289592"><ele>298.399994004</ele><time>2011-04-29T11:34:55Z</time></trkpt>
<trkpt lat="48.62802800" lon="6.99239896"><ele>300.9999998784</ele><time>2011-04-29T11:35:00Z</time></trkpt>
<trkpt lat="48.62800394" lon="6.99195497"><ele>305.0000000064</ele><time>2011-04-29T11:35:06Z</time></trkpt>
<trkpt lat="48.62792892" lon="6.99140092"><ele>309.3999937464</ele><time>2011-04-29T11:35:14Z</time></trkpt>
<trkpt lat="48.62782398" lon="6.99092994"><ele>312.3999938424</ele><time>2011-04-29T11:35:21Z</time></trkpt>
<trkpt lat="48.62765593" lon="6.99031798"><ele>314.200012188</ele><time>2011-04-29T11:35:30Z</time></trkpt>
<trkpt lat="48.62753699" lon="6.98963695"><ele>312.6000060408</ele><time>2011-04-29T11:35:39Z</time></trkpt>
<trkpt lat="48.62737899" lon="6.98905592"><ele>311.9999999256</ele><time>2011-04-29T11:35:47Z</time></trkpt>
<trkpt lat="48.62716097" lon="6.98843792"><ele>313.9999999896</ele><time>2011-04-29T11:35:56Z</time></trkpt>
<trkpt lat="48.62704597" lon="6.98791497"><ele>314.6000061048</ele><time>2011-04-29T11:36:03Z</time></trkpt>
<trkpt lat="48.62690792" lon="6.98732992"><ele>315.6000061368</ele><time>2011-04-29T11:36:11Z</time></trkpt>
<trkpt lat="48.62669192" lon="6.98657596"><ele>318.200012316</ele><time>2011-04-29T11:36:21Z</time></trkpt>
<trkpt lat="48.62647500" lon="6.98584397"><ele>313.6000060728</ele><time>2011-04-29T11:36:30Z</time></trkpt>
<trkpt lat="48.62623494" lon="6.98525992"><ele>310.20001206</ele><time>2011-04-29T11:36:38Z</time></trkpt>
<trkpt lat="48.62596798" lon="6.98479699"><ele>307.2000122688</ele><time>2011-04-29T11:36:45Z</time></trkpt>
<trkpt lat="48.62560596" lon="6.98433498"><ele>304.799987808</ele><time>2011-04-29T11:36:53Z</time></trkpt>
<trkpt lat="48.62529499" lon="6.98396995"><ele>304.2000121728</ele><time>2011-04-29T11:37:00Z</time></trkpt>
<trkpt lat="48.62503197" lon="6.98382293"><ele>304.3999938912</ele><time>2011-04-29T11:37:05Z</time></trkpt>
<trkpt lat="48.62470097" lon="6.98363995"><ele>304.799987808</ele><time>2011-04-29T11:37:11Z</time></trkpt>
<trkpt lat="48.62449192" lon="6.98361095"><ele>305.2000122048</ele><time>2011-04-29T11:37:15Z</time></trkpt>
<trkpt lat="48.62439997" lon="6.98366392"><ele>305.3999939232</ele><time>2011-04-29T11:37:17Z</time></trkpt>
<trkpt lat="48.62407593" lon="6.98395897"><ele>306.2000122368</ele><time>2011-04-29T11:37:26Z</time></trkpt>
<trkpt lat="48.62364896" lon="6.98437396"><ele>307.3999939872</ele><time>2011-04-29T11:37:37Z</time></trkpt>
<trkpt lat="48.62332592" lon="6.98470697"><ele>308.6000062176</ele><time>2011-04-29T11:37:45Z</time></trkpt>
<trkpt lat="48.62317094" lon="6.98471795"><ele>309.6000062496</ele><time>2011-04-29T11:37:49Z</time></trkpt>
<trkpt lat="48.62311193" lon="6.98462097"><ele>309.7999876632</ele><time>2011-04-29T11:37:51Z</time></trkpt>
<trkpt lat="48.62286894" lon="6.98410096"><ele>310.6000059768</ele><time>2011-04-29T11:38:00Z</time></trkpt>
<trkpt lat="48.62267096" lon="6.98379493"><ele>311.7999877272</ele><time>2011-04-29T11:38:06Z</time></trkpt>
<trkpt lat="48.62243400" lon="6.98363098"><ele>313.200012156</ele><time>2011-04-29T11:38:12Z</time></trkpt>
<trkpt lat="48.62224993" lon="6.98350693"><ele>314.3999939064</ele><time>2011-04-29T11:38:18Z</time></trkpt>
<trkpt lat="48.62216393" lon="6.98337198"><ele>315.0000000216</ele><time>2011-04-29T11:38:22Z</time></trkpt>
<trkpt lat="48.62201197" lon="6.98312899"><ele>315.7999878552</ele><time>2011-04-29T11:38:30Z</time></trkpt>
<trkpt lat="48.62189395" lon="6.98290796"><ele>316.3999939704</ele><time>2011-04-29T11:38:37Z</time></trkpt>
<trkpt lat="48.62178398" lon="6.98260898"><ele>317.0000000856</ele><time>2011-04-29T11:38:44Z</time></trkpt>
<trkpt lat="48.62164996" lon="6.98222199"><ele>317.6000062008</ele><time>2011-04-29T11:38:49Z</time></trkpt>
<trkpt lat="48.62141795" lon="6.98152193"><ele>318.0000001176</ele><time>2011-04-29T11:38:56Z</time></trkpt>
<trkpt lat="48.62130496" lon="6.98122697"><ele>317.7999879192</ele><time>2011-04-29T11:38:59Z</time></trkpt>
<trkpt lat="48.62106297" lon="6.98086294"><ele>319.200012348</ele><time>2011-04-29T11:39:04Z</time></trkpt>
<trkpt lat="48.62090992" lon="6.98067192"><ele>320.7999877104</ele><time>2011-04-29T11:39:08Z</time></trkpt>
<trkpt lat="48.62078997" lon="6.98045298"><ele>321.7999877424</ele><time>2011-04-29T11:39:13Z</time></trkpt>
<trkpt lat="48.62083197" lon="6.98023992"><ele>321.2000121072</ele><time>2011-04-29T11:39:17Z</time></trkpt>
<trkpt lat="48.62084898" lon="6.97999592"><ele>320.7999877104</ele><time>2011-04-29T11:39:21Z</time></trkpt>
<trkpt lat="48.62079995" lon="6.97990799"><ele>321.2000121072</ele><time>2011-04-29T11:39:23Z</time></trkpt>
<trkpt lat="48.62064295" lon="6.97960298"><ele>321.9999999408</ele><time>2011-04-29T11:39:30Z</time></trkpt>
<trkpt lat="48.62054095" lon="6.97929494"><ele>321.7999877424</ele><time>2011-04-29T11:39:37Z</time></trkpt>
<trkpt lat="48.62047096" lon="6.97883997"><ele>321.2000121072</ele><time>2011-04-29T11:39:45Z</time></trkpt>
<trkpt lat="48.62039292" lon="6.97836597"><ele>320.600005992</ele><time>2011-04-29T11:39:53Z</time></trkpt>
<trkpt lat="48.62030097" lon="6.97819892"><ele>320.600005992</ele><time>2011-04-29T11:39:57Z</time></trkpt>
<trkpt lat="48.62019293" lon="6.97822692"><ele>320.9999999088</ele><time>2011-04-29T11:40:01Z</time></trkpt>
<trkpt lat="48.62010894" lon="6.97815894"><ele>321.2000121072</ele><time>2011-04-29T11:40:05Z</time></trkpt>
<trkpt lat="48.62003694" lon="6.97797496"><ele>320.9999999088</ele><time>2011-04-29T11:40:09Z</time></trkpt>
<trkpt lat="48.61996796" lon="6.97798393"><ele>321.2000121072</ele><time>2011-04-29T11:40:11Z</time></trkpt>
<trkpt lat="48.61984793" lon="6.97808099"><ele>321.600006024</ele><time>2011-04-29T11:40:16Z</time></trkpt>
<trkpt lat="48.61988297" lon="6.97810194"><ele>321.600006024</ele><time>2011-04-29T11:40:20Z</time></trkpt>
<trkpt lat="48.62001196" lon="6.97801796"><ele>321.2000121072</ele><time>2011-04-29T11:40:24Z</time></trkpt>
<trkpt lat="48.62004600" lon="6.97784496"><ele>320.600005992</ele><time>2011-04-29T11:40:27Z</time></trkpt>
<trkpt lat="48.62005899" lon="6.97753399"><ele>319.7999876784</ele><time>2011-04-29T11:40:32Z</time></trkpt>
<trkpt lat="48.62000895" lon="6.97730994"><ele>319.200012348</ele><time>2011-04-29T11:40:36Z</time></trkpt>
<trkpt lat="48.61985397" lon="6.97717893"><ele>319.200012348</ele><time>2011-04-29T11:40:41Z</time></trkpt>
<trkpt lat="48.61977099" lon="6.97704893"><ele>319.200012348</ele><time>2011-04-29T11:40:44Z</time></trkpt>
<trkpt lat="48.61967996" lon="6.97679898"><ele>318.7999876464</ele><time>2011-04-29T11:40:48Z</time></trkpt>
<trkpt lat="48.61966294" lon="6.97650595"><ele>318.0000001176</ele><time>2011-04-29T11:40:52Z</time></trkpt>
<trkpt lat="48.61958692" lon="6.97629196"><ele>317.7999879192</ele><time>2011-04-29T11:40:55Z</time></trkpt>
<trkpt lat="48.61937595" lon="6.97552292"><ele>317.200012284</ele><time>2011-04-29T11:41:04Z</time></trkpt>
<trkpt lat="48.61938500" lon="6.97508798"><ele>317.200012284</ele><time>2011-04-29T11:41:09Z</time></trkpt>
<trkpt lat="48.61950193" lon="6.97480693"><ele>316.3999939704</ele><time>2011-04-29T11:41:13Z</time></trkpt>
<trkpt lat="48.61958692" lon="6.97472597"><ele>315.7999878552</ele><time>2011-04-29T11:41:16Z</time></trkpt>
<trkpt lat="48.61962698" lon="6.97473996"><ele>315.7999878552</ele><time>2011-04-29T11:41:18Z</time></trkpt>
<trkpt lat="48.61967493" lon="6.97481699"><ele>315.7999878552</ele><time>2011-04-29T11:41:21Z</time></trkpt>
<trkpt lat="48.61976998" lon="6.97477994"><ele>315.20001222</ele><time>2011-04-29T11:41:25Z</time></trkpt>
<trkpt lat="48.61977593" lon="6.97472999"><ele>315.20001222</ele><time>2011-04-29T11:41:26Z</time></trkpt>
<trkpt lat="48.61980493" lon="6.97424099"><ele>313.9999999896</ele><time>2011-04-29T11:41:35Z</time></trkpt>
<trkpt lat="48.61986394" lon="6.97394896"><ele>312.9999999576</ele><time>2011-04-29T11:41:41Z</time></trkpt>
<trkpt lat="48.61979596" lon="6.97389498"><ele>312.9999999576</ele><time>2011-04-29T11:41:45Z</time></trkpt>
<trkpt lat="48.61974995" lon="6.97405399"><ele>313.7999877912</ele><time>2011-04-29T11:41:49Z</time></trkpt>
<trkpt lat="48.61975196" lon="6.97411392"><ele>313.9999999896</ele><time>2011-04-29T11:41:50Z</time></trkpt>
<trkpt lat="48.61974995" lon="6.97470694"><ele>315.20001222</ele><time>2011-04-29T11:41:59Z</time></trkpt>
<trkpt lat="48.61975498" lon="6.97527297"><ele>315.7999878552</ele><time>2011-04-29T11:42:08Z</time></trkpt>
<trkpt lat="48.61986293" lon="6.97577697"><ele>315.3999939384</ele><time>2011-04-29T11:42:16Z</time></trkpt>
<trkpt lat="48.62002194" lon="6.97616899"><ele>315.6000061368</ele><time>2011-04-29T11:42:23Z</time></trkpt>
<trkpt lat="48.62019595" lon="6.97654995"><ele>316.200012252</ele><time>2011-04-29T11:42:30Z</time></trkpt>
<trkpt lat="48.62036099" lon="6.97697894"><ele>317.200012284</ele><time>2011-04-29T11:42:39Z</time></trkpt>
<trkpt lat="48.62036694" lon="6.97698698"><ele>317.200012284</ele><time>2011-04-29T11:42:41Z</time></trkpt>
<trkpt lat="48.62040994" lon="6.97703199"><ele>317.200012284</ele><time>2011-04-29T11:43:44Z</time></trkpt>
<trkpt lat="48.62048898" lon="6.97723894"><ele>317.7999879192</ele><time>2011-04-29T11:43:49Z</time></trkpt>
<trkpt lat="48.62051295" lon="6.97729493"><ele>318.0000001176</ele><time>2011-04-29T11:43:50Z</time></trkpt>
<trkpt lat="48.62061898" lon="6.97761697"><ele>318.6000062328</ele><time>2011-04-29T11:43:55Z</time></trkpt>
<trkpt lat="48.62074697" lon="6.97821099"><ele>319.0000001496</ele><time>2011-04-29T11:44:03Z</time></trkpt>
<trkpt lat="48.62086692" lon="6.97889093"><ele>319.9999998768</ele><time>2011-04-29T11:44:11Z</time></trkpt>
<trkpt lat="48.62104696" lon="6.97951798"><ele>319.0000001496</ele><time>2011-04-29T11:44:18Z</time></trkpt>
<trkpt lat="48.62131594" lon="6.98008896"><ele>316.200012252</ele><time>2011-04-29T11:44:24Z</time></trkpt>
<trkpt lat="48.62171198" lon="6.98064895"><ele>311.9999999256</ele><time>2011-04-29T11:44:30Z</time></trkpt>
<trkpt lat="48.62240097" lon="6.98137198"><ele>310.6000059768</ele><time>2011-04-29T11:44:39Z</time></trkpt>
<trkpt lat="48.62307999" lon="6.98207597"><ele>309.6000062496</ele><time>2011-04-29T11:44:48Z</time></trkpt>
<trkpt lat="48.62370092" lon="6.98264594"><ele>309.6000062496</ele><time>2011-04-29T11:44:56Z</time></trkpt>
<trkpt lat="48.62436796" lon="6.98305196"><ele>306.799987872</ele><time>2011-04-29T11:45:04Z</time></trkpt>
<trkpt lat="48.62517295" lon="6.98351598"><ele>303.6000060576</ele><time>2011-04-29T11:45:14Z</time></trkpt>
<trkpt lat="48.62561896" lon="6.98384497"><ele>303.2000121408</ele><time>2011-04-29T11:45:20Z</time></trkpt>
<trkpt lat="48.62607099" lon="6.98434797"><ele>305.0000000064</ele><time>2011-04-29T11:45:27Z</time></trkpt>
<trkpt lat="48.62644994" lon="6.98494392"><ele>309.7999876632</ele><time>2011-04-29T11:45:34Z</time></trkpt>
<trkpt lat="48.62674599" lon="6.98561297"><ele>312.9999999576</ele><time>2011-04-29T11:45:41Z</time></trkpt>
<trkpt lat="48.62696794" lon="6.98632996"><ele>313.7999877912</ele><time>2011-04-29T11:45:48Z</time></trkpt>
<trkpt lat="48.62714597" lon="6.98699095"><ele>312.7999877592</ele><time>2011-04-29T11:45:55Z</time></trkpt>
<trkpt lat="48.62731394" lon="6.98763292"><ele>311.7999877272</ele><time>2011-04-29T11:46:03Z</time></trkpt>
<trkpt lat="48.62750497" lon="6.98833399"><ele>309.7999876632</ele><time>2011-04-29T11:46:12Z</time></trkpt>
<trkpt lat="48.62774000" lon="6.98920797"><ele>307.2000122688</ele><time>2011-04-29T11:46:23Z</time></trkpt>
<trkpt lat="48.62799799" lon="6.99014800"><ele>306.799987872</ele><time>2011-04-29T11:46:34Z</time></trkpt>
<trkpt lat="48.62814694" lon="6.99070296"><ele>304.799987808</ele><time>2011-04-29T11:46:40Z</time></trkpt>
<trkpt lat="48.62831994" lon="6.99154300"><ele>301.2000120768</ele><time>2011-04-29T11:46:48Z</time></trkpt>
<trkpt lat="48.62839194" lon="6.99227692"><ele>298.399994004</ele><time>2011-04-29T11:46:54Z</time></trkpt>
<trkpt lat="48.62837995" lon="6.99309600"><ele>296.39999394</ele><time>2011-04-29T11:47:00Z</time></trkpt>
<trkpt lat="48.62828398" lon="6.99392597"><ele>293.9999999592</ele><time>2011-04-29T11:47:06Z</time></trkpt>
<trkpt lat="48.62821097" lon="6.99449996"><ele>293.9999999592</ele><time>2011-04-29T11:47:11Z</time></trkpt>
<trkpt lat="48.62817200" lon="6.99493599"><ele>295.2000121896</ele><time>2011-04-29T11:47:16Z</time></trkpt>
<trkpt lat="48.62816496" lon="6.99541694"><ele>298.399994004</ele><time>2011-04-29T11:47:23Z</time></trkpt>
<trkpt lat="48.62819094" lon="6.99594593"><ele>301.2000120768</ele><time>2011-04-29T11:47:32Z</time></trkpt>
<trkpt lat="48.62823796" lon="6.99628397"><ele>301.799987712</ele><time>2011-04-29T11:47:38Z</time></trkpt>
<trkpt lat="48.62830192" lon="6.99666099"><ele>302.3999938272</ele><time>2011-04-29T11:47:45Z</time></trkpt>
<trkpt lat="48.62838599" lon="6.99702392"><ele>305.2000122048</ele><time>2011-04-29T11:47:52Z</time></trkpt>
<trkpt lat="48.62852999" lon="6.99752600"><ele>309.9999998616</ele><time>2011-04-29T11:48:01Z</time></trkpt>
<trkpt lat="48.62869193" lon="6.99807795"><ele>318.200012316</ele><time>2011-04-29T11:48:11Z</time></trkpt>
<trkpt lat="48.62883794" lon="6.99856192"><ele>324.0000000048</ele><time>2011-04-29T11:48:20Z</time></trkpt>
<trkpt lat="48.62900893" lon="6.99915100"><ele>328.7999876616</ele><time>2011-04-29T11:48:31Z</time></trkpt>
<trkpt lat="48.62916098" lon="6.99964293"><ele>328.0000001328</ele><time>2011-04-29T11:48:40Z</time></trkpt>
<trkpt lat="48.62932895" lon="7.00020192"><ele>324.60000612</ele><time>2011-04-29T11:48:50Z</time></trkpt>
<trkpt lat="48.62953096" lon="7.00089192"><ele>319.9999998768</ele><time>2011-04-29T11:49:02Z</time></trkpt>
<trkpt lat="48.62971092" lon="7.00148896"><ele>317.0000000856</ele><time>2011-04-29T11:49:12Z</time></trkpt>
<trkpt lat="48.62987897" lon="7.00207192"><ele>313.3999938744</ele><time>2011-04-29T11:49:21Z</time></trkpt>
<trkpt lat="48.63007092" lon="7.00273292"><ele>309.3999937464</ele><time>2011-04-29T11:49:30Z</time></trkpt>
<trkpt lat="48.63027896" lon="7.00343197"><ele>306.3999939552</ele><time>2011-04-29T11:49:39Z</time></trkpt>
<trkpt lat="48.63050896" lon="7.00420897"><ele>306.0000000384</ele><time>2011-04-29T11:49:49Z</time></trkpt>
<trkpt lat="48.63069294" lon="7.00481297"><ele>306.3999939552</ele><time>2011-04-29T11:49:57Z</time></trkpt>
<trkpt lat="48.63092897" lon="7.00530097"><ele>306.2000122368</ele><time>2011-04-29T11:50:04Z</time></trkpt>
<trkpt lat="48.63121094" lon="7.00560297"><ele>305.79998784</ele><time>2011-04-29T11:50:10Z</time></trkpt>
<trkpt lat="48.63162098" lon="7.00585593"><ele>305.79998784</ele><time>2011-04-29T11:50:18Z</time></trkpt>
<trkpt lat="48.63217595" lon="7.00613094"><ele>304.3999938912</ele><time>2011-04-29T11:50:28Z</time></trkpt>
<trkpt lat="48.63266596" lon="7.00629892"><ele>302.9999999424</ele><time>2011-04-29T11:50:36Z</time></trkpt>
<trkpt lat="48.63309695" lon="7.00642096"><ele>302.2000121088</ele><time>2011-04-29T11:50:43Z</time></trkpt>
<trkpt lat="48.63355092" lon="7.00663696"><ele>301.2000120768</ele><time>2011-04-29T11:50:51Z</time></trkpt>
<trkpt lat="48.63424595" lon="7.00705195"><ele>299.2000123176</ele><time>2011-04-29T11:51:02Z</time></trkpt>
<trkpt lat="48.63461198" lon="7.00723794"><ele>299.0000001192</ele><time>2011-04-29T11:51:07Z</time></trkpt>
<trkpt lat="48.63477593" lon="7.00727298"><ele>298.7999879208</ele><time>2011-04-29T11:51:09Z</time></trkpt>
<trkpt lat="48.63544598" lon="7.00719000"><ele>295.2000121896</ele><time>2011-04-29T11:51:17Z</time></trkpt>
<trkpt lat="48.63591696" lon="7.00714700"><ele>291.7999876968</ele><time>2011-04-29T11:51:22Z</time></trkpt>
<trkpt lat="48.63640596" lon="7.00693695"><ele>289.2000123024</ele><time>2011-04-29T11:51:27Z</time></trkpt>
<trkpt lat="48.63677896" lon="7.00674894"><ele>286.6000061232</ele><time>2011-04-29T11:51:31Z</time></trkpt>
<trkpt lat="48.63711893" lon="7.00678892"><ele>282.999999912</ele><time>2011-04-29T11:51:35Z</time></trkpt>
<trkpt lat="48.63731800" lon="7.00700895"><ele>280.7999876496</ele><time>2011-04-29T11:51:39Z</time></trkpt>
<trkpt lat="48.63735194" lon="7.00703493"><ele>280.3999940376</ele><time>2011-04-29T11:51:41Z</time></trkpt>
<trkpt lat="48.63740592" lon="7.00690099"><ele>279.7999879224</ele><time>2011-04-29T11:51:45Z</time></trkpt>
<trkpt lat="48.63741095" lon="7.00684299"><ele>279.7999879224</ele><time>2011-04-29T11:51:46Z</time></trkpt>
<trkpt lat="48.63745295" lon="7.00637997"><ele>279.3999940056</ele><time>2011-04-29T11:51:52Z</time></trkpt>
<trkpt lat="48.63754196" lon="7.00577295"><ele>278.7999878904</ele><time>2011-04-29T11:51:58Z</time></trkpt>
<trkpt lat="48.63771496" lon="7.00501892"><ele>278.600006172</ele><time>2011-04-29T11:52:06Z</time></trkpt>
<trkpt lat="48.63770792" lon="7.00466193"><ele>279.0000000888</ele><time>2011-04-29T11:52:10Z</time></trkpt>
<trkpt lat="48.63759493" lon="7.00404192"><ele>279.3999940056</ele><time>2011-04-29T11:52:18Z</time></trkpt>
<trkpt lat="48.63753299" lon="7.00352199"><ele>279.7999879224</ele><time>2011-04-29T11:52:26Z</time></trkpt>
<trkpt lat="48.63747600" lon="7.00286997"><ele>281.6000059632</ele><time>2011-04-29T11:52:36Z</time></trkpt>
<trkpt lat="48.63746393" lon="7.00248792"><ele>282.7999877136</ele><time>2011-04-29T11:52:42Z</time></trkpt>
<trkpt lat="48.63761698" lon="7.00228198"><ele>284.3999938608</ele><time>2011-04-29T11:52:48Z</time></trkpt>
<trkpt lat="48.63762796" lon="7.00231894"><ele>284.2000121424</ele><time>2011-04-29T11:52:51Z</time></trkpt>
<trkpt lat="48.63753894" lon="7.00237594"><ele>283.6000060272</ele><time>2011-04-29T11:52:57Z</time></trkpt>
<trkpt lat="48.63753794" lon="7.00237493"><ele>283.6000060272</ele><time>2011-04-29T11:52:58Z</time></trkpt>
<trkpt lat="48.63757993" lon="7.00243293"><ele>283.6000060272</ele><time>2011-04-29T11:54:03Z</time></trkpt>
<trkpt lat="48.63759795" lon="7.00240695"><ele>283.6000060272</ele><time>2011-04-29T11:54:04Z</time></trkpt>
<trkpt lat="48.63770893" lon="7.00220193"><ele>284.999999976</ele><time>2011-04-29T11:54:09Z</time></trkpt>
<trkpt lat="48.63789995" lon="7.00190797"><ele>287.2000122384</ele><time>2011-04-29T11:54:16Z</time></trkpt>
<trkpt lat="48.63801495" lon="7.00181393"><ele>288.000000072</ele><time>2011-04-29T11:54:21Z</time></trkpt>
<trkpt lat="48.63813699" lon="7.00171595"><ele>289.000000104</ele><time>2011-04-29T11:54:28Z</time></trkpt>
<trkpt lat="48.63823397" lon="7.00160698"><ele>289.6000062192</ele><time>2011-04-29T11:54:34Z</time></trkpt>
<trkpt lat="48.63837898" lon="7.00147899"><ele>290.399993748</ele><time>2011-04-29T11:54:42Z</time></trkpt>
<trkpt lat="48.63853496" lon="7.00131596"><ele>290.9999998632</ele><time>2011-04-29T11:54:51Z</time></trkpt>
<trkpt lat="48.63867193" lon="7.00115997"><ele>291.6000059784</ele><time>2011-04-29T11:54:59Z</time></trkpt>
<trkpt lat="48.63883495" lon="7.00092193"><ele>292.2000120936</ele><time>2011-04-29T11:55:09Z</time></trkpt>
<trkpt lat="48.63892196" lon="7.00075697"><ele>292.7999877288</ele><time>2011-04-29T11:55:15Z</time></trkpt>
<trkpt lat="48.63904894" lon="7.00051499"><ele>293.2000121256</ele><time>2011-04-29T11:55:24Z</time></trkpt>
<trkpt lat="48.63913000" lon="7.00036193"><ele>293.399993844</ele><time>2011-04-29T11:55:31Z</time></trkpt>
<trkpt lat="48.63922094" lon="7.00022799"><ele>293.6000060424</ele><time>2011-04-29T11:55:37Z</time></trkpt>
<trkpt lat="48.63928598" lon="7.00011894"><ele>293.6000060424</ele><time>2011-04-29T11:55:44Z</time></trkpt>
<trkpt lat="48.63928598" lon="7.00011995"><ele>293.6000060424</ele><time>2011-04-29T11:55:45Z</time></trkpt>
<trkpt lat="48.63943895" lon="7.00002699"><ele>293.6000060424</ele><time>2011-04-29T11:56:15Z</time></trkpt>
<trkpt lat="48.63966594" lon="6.99993798"><ele>293.399993844</ele><time>2011-04-29T11:56:21Z</time></trkpt>
<trkpt lat="48.64005293" lon="6.99984594"><ele>292.7999877288</ele><time>2011-04-29T11:56:29Z</time></trkpt>
<trkpt lat="48.64062692" lon="6.99978794"><ele>291.39999378</ele><time>2011-04-29T11:56:40Z</time></trkpt>
<trkpt lat="48.64109195" lon="6.99969993"><ele>290.9999998632</ele><time>2011-04-29T11:56:49Z</time></trkpt>
<trkpt lat="48.64153694" lon="6.99946498"><ele>292.6000060104</ele><time>2011-04-29T11:56:58Z</time></trkpt>
<trkpt lat="48.64176292" lon="6.99946096"><ele>293.399993844</ele><time>2011-04-29T11:57:03Z</time></trkpt>
<trkpt lat="48.64188496" lon="6.99959792"><ele>293.7999877608</ele><time>2011-04-29T11:57:06Z</time></trkpt>
<trkpt lat="48.64213399" lon="7.00006999"><ele>293.7999877608</ele><time>2011-04-29T11:57:13Z</time></trkpt>
<trkpt lat="48.64244998" lon="7.00072194"><ele>292.2000120936</ele><time>2011-04-29T11:57:21Z</time></trkpt>
<trkpt lat="48.64278895" lon="7.00130892"><ele>291.9999998952</ele><time>2011-04-29T11:57:29Z</time></trkpt>
<trkpt lat="48.64317795" lon="7.00189498"><ele>292.2000120936</ele><time>2011-04-29T11:57:38Z</time></trkpt>
<trkpt lat="48.64350200" lon="7.00234995"><ele>293.7999877608</ele><time>2011-04-29T11:57:46Z</time></trkpt>
<trkpt lat="48.64390198" lon="7.00280593"><ele>295.2000121896</ele><time>2011-04-29T11:57:56Z</time></trkpt>
<trkpt lat="48.64420792" lon="7.00313592"><ele>295.399993908</ele><time>2011-04-29T11:58:03Z</time></trkpt>
<trkpt lat="48.64459994" lon="7.00339895"><ele>296.39999394</ele><time>2011-04-29T11:58:11Z</time></trkpt>
<trkpt lat="48.64493798" lon="7.00360095"><ele>296.39999394</ele><time>2011-04-29T11:58:18Z</time></trkpt>
<trkpt lat="48.64531299" lon="7.00376096"><ele>295.2000121896</ele><time>2011-04-29T11:58:25Z</time></trkpt>
<trkpt lat="48.64565296" lon="7.00378099"><ele>295.2000121896</ele><time>2011-04-29T11:58:31Z</time></trkpt>
<trkpt lat="48.64611899" lon="7.00366692"><ele>296.39999394</ele><time>2011-04-29T11:58:39Z</time></trkpt>
<trkpt lat="48.64661797" lon="7.00342493"><ele>298.0000000872</ele><time>2011-04-29T11:58:48Z</time></trkpt>
<trkpt lat="48.64691293" lon="7.00322997"><ele>300.6000059616</ele><time>2011-04-29T11:58:55Z</time></trkpt>
<trkpt lat="48.64726698" lon="7.00305194"><ele>304.3999938912</ele><time>2011-04-29T11:59:05Z</time></trkpt>
<trkpt lat="48.64757996" lon="7.00290995"><ele>308.0000001024</ele><time>2011-04-29T11:59:14Z</time></trkpt>
<trkpt lat="48.64792496" lon="7.00281297"><ele>312.3999938424</ele><time>2011-04-29T11:59:23Z</time></trkpt>
<trkpt lat="48.64825395" lon="7.00281993"><ele>314.200012188</ele><time>2011-04-29T11:59:30Z</time></trkpt>
<trkpt lat="48.64830592" lon="7.00282797"><ele>314.200012188</ele><time>2011-04-29T11:59:31Z</time></trkpt>
<trkpt lat="48.64857799" lon="7.00297197"><ele>311.9999999256</ele><time>2011-04-29T11:59:36Z</time></trkpt>
<trkpt lat="48.64905895" lon="7.00346299"><ele>303.2000121408</ele><time>2011-04-29T11:59:45Z</time></trkpt>
<trkpt lat="48.64936799" lon="7.00364797"><ele>300.6000059616</ele><time>2011-04-29T11:59:50Z</time></trkpt>
<trkpt lat="48.64974392" lon="7.00371092"><ele>299.2000123176</ele><time>2011-04-29T11:59:56Z</time></trkpt>
<trkpt lat="48.65014600" lon="7.00367999"><ele>298.399994004</ele><time>2011-04-29T12:00:03Z</time></trkpt>
<trkpt lat="48.65047700" lon="7.00346299"><ele>298.6000062024</ele><time>2011-04-29T12:00:09Z</time></trkpt>
<trkpt lat="48.65086894" lon="7.00305495"><ele>301.2000120768</ele><time>2011-04-29T12:00:17Z</time></trkpt>
<trkpt lat="48.65130899" lon="7.00259596"><ele>302.2000121088</ele><time>2011-04-29T12:00:26Z</time></trkpt>
<trkpt lat="48.65153898" lon="7.00245196"><ele>300.79998768</ele><time>2011-04-29T12:00:30Z</time></trkpt>
<trkpt lat="48.65207794" lon="7.00231098"><ele>298.399994004</ele><time>2011-04-29T12:00:38Z</time></trkpt>
<trkpt lat="48.65250299" lon="7.00221400"><ele>297.399993972</ele><time>2011-04-29T12:00:44Z</time></trkpt>
<trkpt lat="48.65293298" lon="7.00196598"><ele>297.6000061704</ele><time>2011-04-29T12:00:51Z</time></trkpt>
<trkpt lat="48.65300297" lon="7.00193396"><ele>297.399993972</ele><time>2011-04-29T12:00:52Z</time></trkpt>
<trkpt lat="48.65363899" lon="7.00201392"><ele>291.9999998952</ele><time>2011-04-29T12:01:01Z</time></trkpt>
<trkpt lat="48.65390494" lon="7.00208198"><ele>290.000000136</ele><time>2011-04-29T12:01:06Z</time></trkpt>
<trkpt lat="48.65396496" lon="7.00215398"><ele>289.2000123024</ele><time>2011-04-29T12:01:08Z</time></trkpt>
<trkpt lat="48.65391400" lon="7.00229497"><ele>288.7999879056</ele><time>2011-04-29T12:01:11Z</time></trkpt>
<trkpt lat="48.65390000" lon="7.00242396"><ele>288.2000122704</ele><time>2011-04-29T12:01:15Z</time></trkpt>
<trkpt lat="48.65387695" lon="7.00246797"><ele>288.2000122704</ele><time>2011-04-29T12:01:17Z</time></trkpt>
<trkpt lat="48.65390193" lon="7.00244098"><ele>288.2000122704</ele><time>2011-04-29T12:01:21Z</time></trkpt>
<trkpt lat="48.65391400" lon="7.00225792"><ele>289.000000104</ele><time>2011-04-29T12:01:25Z</time></trkpt>
<trkpt lat="48.65400997" lon="7.00215097"><ele>289.000000104</ele><time>2011-04-29T12:01:28Z</time></trkpt>
<trkpt lat="48.65442798" lon="7.00195198"><ele>289.000000104</ele><time>2011-04-29T12:01:37Z</time></trkpt>
<trkpt lat="48.65489493" lon="7.00172994"><ele>290.399993748</ele><time>2011-04-29T12:01:47Z</time></trkpt>
<trkpt lat="48.65513692" lon="7.00162198"><ele>291.39999378</ele><time>2011-04-29T12:01:54Z</time></trkpt>
<trkpt lat="48.65546197" lon="7.00150397"><ele>292.9999999272</ele><time>2011-04-29T12:02:05Z</time></trkpt>
<trkpt lat="48.65566498" lon="7.00144194"><ele>294.2000121576</ele><time>2011-04-29T12:02:12Z</time></trkpt>
<trkpt lat="48.65592993" lon="7.00141093"><ele>295.7999878248</ele><time>2011-04-29T12:02:21Z</time></trkpt>
<trkpt lat="48.65618499" lon="7.00147396"><ele>297.0000000552</ele><time>2011-04-29T12:02:29Z</time></trkpt>
<trkpt lat="48.65646495" lon="7.00158594"><ele>297.6000061704</ele><time>2011-04-29T12:02:38Z</time></trkpt>
<trkpt lat="48.65669897" lon="7.00157798"><ele>299.6000062344</ele><time>2011-04-29T12:02:46Z</time></trkpt>
<trkpt lat="48.65682897" lon="7.00153297"><ele>301.2000120768</ele><time>2011-04-29T12:02:53Z</time></trkpt>
<trkpt lat="48.65700097" lon="7.00150196"><ele>302.9999999424</ele><time>2011-04-29T12:03:02Z</time></trkpt>
<trkpt lat="48.65719199" lon="7.00147295"><ele>305.0000000064</ele><time>2011-04-29T12:03:12Z</time></trkpt>
<trkpt lat="48.65742199" lon="7.00144999"><ele>307.2000122688</ele><time>2011-04-29T12:03:24Z</time></trkpt>
<trkpt lat="48.65757496" lon="7.00146097"><ele>308.3999940192</ele><time>2011-04-29T12:03:32Z</time></trkpt>
<trkpt lat="48.65773095" lon="7.00151495"><ele>309.0000001344</ele><time>2011-04-29T12:03:40Z</time></trkpt>
<trkpt lat="48.65787897" lon="7.00156993"><ele>309.6000062496</ele><time>2011-04-29T12:03:48Z</time></trkpt>
<trkpt lat="48.65800596" lon="7.00163296"><ele>309.7999876632</ele><time>2011-04-29T12:03:55Z</time></trkpt>
<trkpt lat="48.65815792" lon="7.00173296"><ele>309.9999998616</ele><time>2011-04-29T12:04:03Z</time></trkpt>
<trkpt lat="48.65829899" lon="7.00180295"><ele>310.3999937784</ele><time>2011-04-29T12:04:10Z</time></trkpt>
<trkpt lat="48.65844492" lon="7.00184595"><ele>310.9999998936</ele><time>2011-04-29T12:04:17Z</time></trkpt>
<trkpt lat="48.65862697" lon="7.00188392"><ele>311.9999999256</ele><time>2011-04-29T12:04:24Z</time></trkpt>
<trkpt lat="48.65891296" lon="7.00190697"><ele>313.9999999896</ele><time>2011-04-29T12:04:34Z</time></trkpt>
<trkpt lat="48.65918295" lon="7.00185693"><ele>316.7999878872</ele><time>2011-04-29T12:04:43Z</time></trkpt>
<trkpt lat="48.65950699" lon="7.00191694"><ele>318.3999940344</ele><time>2011-04-29T12:04:54Z</time></trkpt>
<trkpt lat="48.65983196" lon="7.00197897"><ele>320.2000120752</ele><time>2011-04-29T12:05:05Z</time></trkpt>
<trkpt lat="48.66004695" lon="7.00202792"><ele>320.9999999088</ele><time>2011-04-29T12:05:12Z</time></trkpt>
<trkpt lat="48.66033194" lon="7.00207796"><ele>320.7999877104</ele><time>2011-04-29T12:05:22Z</time></trkpt>
<trkpt lat="48.66054794" lon="7.00203697"><ele>321.3999938256</ele><time>2011-04-29T12:05:30Z</time></trkpt>
<trkpt lat="48.66081398" lon="7.00192893"><ele>322.3999938576</ele><time>2011-04-29T12:05:39Z</time></trkpt>
<trkpt lat="48.66101397" lon="7.00181393"><ele>321.3999938256</ele><time>2011-04-29T12:05:44Z</time></trkpt>
<trkpt lat="48.66141597" lon="7.00150397"><ele>319.9999998768</ele><time>2011-04-29T12:05:53Z</time></trkpt>
<trkpt lat="48.66174395" lon="7.00129299"><ele>319.0000001496</ele><time>2011-04-29T12:05:59Z</time></trkpt>
<trkpt lat="48.66220898" lon="7.00104992"><ele>317.7999879192</ele><time>2011-04-29T12:06:06Z</time></trkpt>
<trkpt lat="48.66262095" lon="7.00081598"><ele>317.200012284</ele><time>2011-04-29T12:06:13Z</time></trkpt>
<trkpt lat="48.66313292" lon="7.00053100"><ele>315.0000000216</ele><time>2011-04-29T12:06:22Z</time></trkpt>
<trkpt lat="48.66361999" lon="7.00028096"><ele>312.7999877592</ele><time>2011-04-29T12:06:30Z</time></trkpt>
<trkpt lat="48.66393498" lon="7.00004099"><ele>312.6000060408</ele><time>2011-04-29T12:06:36Z</time></trkpt>
<trkpt lat="48.66430596" lon="6.99973899"><ele>310.9999998936</ele><time>2011-04-29T12:06:42Z</time></trkpt>
<trkpt lat="48.66464895" lon="6.99944294"><ele>310.20001206</ele><time>2011-04-29T12:06:47Z</time></trkpt>
<trkpt lat="48.66493595" lon="6.99928494"><ele>308.2000123008</ele><time>2011-04-29T12:06:51Z</time></trkpt>
<trkpt lat="48.66503100" lon="6.99922794"><ele>307.3999939872</ele><time>2011-04-29T12:06:53Z</time></trkpt>
<trkpt lat="48.66524298" lon="6.99903994"><ele>303.9999999744</ele><time>2011-04-29T12:06:59Z</time></trkpt>
<trkpt lat="48.66531892" lon="6.99895595"><ele>302.799987744</ele><time>2011-04-29T12:07:04Z</time></trkpt>
<trkpt lat="48.66531800" lon="6.99895293"><ele>302.799987744</ele><time>2011-04-29T12:07:05Z</time></trkpt>
<trkpt lat="48.66552897" lon="6.99885998"><ele>299.6000062344</ele><time>2011-04-29T12:07:26Z</time></trkpt>
<trkpt lat="48.66572494" lon="6.99882293"><ele>296.6000061384</ele><time>2011-04-29T12:07:29Z</time></trkpt>
<trkpt lat="48.66580096" lon="6.99882997"><ele>295.6000061064</ele><time>2011-04-29T12:07:30Z</time></trkpt>
<trkpt lat="48.66615099" lon="6.99888295"><ele>291.9999998952</ele><time>2011-04-29T12:07:34Z</time></trkpt>
<trkpt lat="48.66667796" lon="6.99878697"><ele>286.7999878416</ele><time>2011-04-29T12:07:39Z</time></trkpt>
<trkpt lat="48.66711399" lon="6.99867298"><ele>282.7999877136</ele><time>2011-04-29T12:07:43Z</time></trkpt>
<trkpt lat="48.66727693" lon="6.99863300"><ele>281.3999937648</ele><time>2011-04-29T12:07:45Z</time></trkpt>
<trkpt lat="48.66744893" lon="6.99866493"><ele>279.7999879224</ele><time>2011-04-29T12:07:49Z</time></trkpt>
<trkpt lat="48.66762495" lon="6.99858095"><ele>278.2000122552</ele><time>2011-04-29T12:07:53Z</time></trkpt>
<trkpt lat="48.66794296" lon="6.99825900"><ele>275.3999938776</ele><time>2011-04-29T12:07:59Z</time></trkpt>
<trkpt lat="48.66844595" lon="6.99777293"><ele>271.3999937496</ele><time>2011-04-29T12:08:08Z</time></trkpt>
<trkpt lat="48.66885792" lon="6.99743698"><ele>271.0000001376</ele><time>2011-04-29T12:08:16Z</time></trkpt>
<trkpt lat="48.66913696" lon="6.99704396"><ele>272.9999998968</ele><time>2011-04-29T12:08:23Z</time></trkpt>
<trkpt lat="48.66933594" lon="6.99675394"><ele>274.7999877624</ele><time>2011-04-29T12:08:29Z</time></trkpt>
<trkpt lat="48.66935195" lon="6.99670793"><ele>275.2000121592</ele><time>2011-04-29T12:08:30Z</time></trkpt>
<trkpt lat="48.66943795" lon="6.99672192"><ele>275.2000121592</ele><time>2011-04-29T12:08:34Z</time></trkpt>
<trkpt lat="48.66948497" lon="6.99678596"><ele>274.9999999608</ele><time>2011-04-29T12:08:39Z</time></trkpt>
<trkpt lat="48.66953895" lon="6.99688495"><ele>274.7999877624</ele><time>2011-04-29T12:09:47Z</time></trkpt>
<trkpt lat="48.66970793" lon="6.99705494"><ele>274.3999938456</ele><time>2011-04-29T12:09:52Z</time></trkpt>
<trkpt lat="48.66994397" lon="6.99714093"><ele>274.3999938456</ele><time>2011-04-29T12:09:57Z</time></trkpt>
<trkpt lat="48.67020892" lon="6.99736398"><ele>274.600006044</ele><time>2011-04-29T12:10:03Z</time></trkpt>
<trkpt lat="48.67045199" lon="6.99786899"><ele>273.7999877304</ele><time>2011-04-29T12:10:10Z</time></trkpt>
<trkpt lat="48.67064998" lon="6.99854599"><ele>272.3999937816</ele><time>2011-04-29T12:10:18Z</time></trkpt>
<trkpt lat="48.67077394" lon="6.99918092"><ele>272.60000598</ele><time>2011-04-29T12:10:25Z</time></trkpt>
<trkpt lat="48.67094192" lon="6.99993295"><ele>271.3999937496</ele><time>2011-04-29T12:10:33Z</time></trkpt>
<trkpt lat="48.67096798" lon="7.00002196"><ele>271.200012336</ele><time>2011-04-29T12:10:34Z</time></trkpt>
<trkpt lat="48.67113395" lon="7.00023998"><ele>271.6000062528</ele><time>2011-04-29T12:10:38Z</time></trkpt>
<trkpt lat="48.67126496" lon="7.00016596"><ele>271.9999998648</ele><time>2011-04-29T12:10:41Z</time></trkpt>
<trkpt lat="48.67130695" lon="7.00001299"><ele>271.9999998648</ele><time>2011-04-29T12:10:44Z</time></trkpt>
<trkpt lat="48.67130494" lon="6.99984192"><ele>272.60000598</ele><time>2011-04-29T12:10:50Z</time></trkpt>
<trkpt lat="48.67130293" lon="6.99984100"><ele>272.60000598</ele><time>2011-04-29T12:10:51Z</time></trkpt>
<trkpt lat="48.67121894" lon="6.99998399"><ele>271.7999876664</ele><time>2011-04-29T12:15:40Z</time></trkpt>
<trkpt lat="48.67110293" lon="7.00015197"><ele>271.6000062528</ele><time>2011-04-29T12:15:45Z</time></trkpt>
<trkpt lat="48.67108994" lon="7.00017292"><ele>271.6000062528</ele><time>2011-04-29T12:15:46Z</time></trkpt>
<trkpt lat="48.67105097" lon="7.00027694"><ele>271.3999937496</ele><time>2011-04-29T12:15:49Z</time></trkpt>
<trkpt lat="48.67114099" lon="7.00057693"><ele>269.6000061888</ele><time>2011-04-29T12:15:54Z</time></trkpt>
<trkpt lat="48.67135598" lon="7.00107599"><ele>268.7999878752</ele><time>2011-04-29T12:16:01Z</time></trkpt>
<trkpt lat="48.67163200" lon="7.00162299"><ele>268.7999878752</ele><time>2011-04-29T12:16:08Z</time></trkpt>
<trkpt lat="48.67195194" lon="7.00230695"><ele>269.7999879072</ele><time>2011-04-29T12:16:16Z</time></trkpt>
<trkpt lat="48.67212100" lon="7.00299997"><ele>270.0000001056</ele><time>2011-04-29T12:16:23Z</time></trkpt>
<trkpt lat="48.67232200" lon="7.00379692"><ele>269.7999879072</ele><time>2011-04-29T12:16:31Z</time></trkpt>
<trkpt lat="48.67263297" lon="7.00454199"><ele>269.0000000736</ele><time>2011-04-29T12:16:39Z</time></trkpt>
<trkpt lat="48.67299397" lon="7.00537096"><ele>267.0000000096</ele><time>2011-04-29T12:16:48Z</time></trkpt>
<trkpt lat="48.67326094" lon="7.00632297"><ele>265.200012144</ele><time>2011-04-29T12:16:57Z</time></trkpt>
<trkpt lat="48.67357995" lon="7.00722495"><ele>264.200012112</ele><time>2011-04-29T12:17:06Z</time></trkpt>
<trkpt lat="48.67368196" lon="7.00739393"><ele>263.9999999136</ele><time>2011-04-29T12:17:08Z</time></trkpt>
<trkpt lat="48.67400592" lon="7.00766198"><ele>264.200012112</ele><time>2011-04-29T12:17:13Z</time></trkpt>
<trkpt lat="48.67407499" lon="7.00768596"><ele>264.200012112</ele><time>2011-04-29T12:17:14Z</time></trkpt>
<trkpt lat="48.67454597" lon="7.00773893"><ele>265.200012144</ele><time>2011-04-29T12:17:21Z</time></trkpt>
<trkpt lat="48.67506992" lon="7.00780196"><ele>266.200012176</ele><time>2011-04-29T12:17:29Z</time></trkpt>
<trkpt lat="48.67576595" lon="7.00793699"><ele>265.7999877792</ele><time>2011-04-29T12:17:40Z</time></trkpt>
<trkpt lat="48.67634196" lon="7.00805794"><ele>266.6000060928</ele><time>2011-04-29T12:17:50Z</time></trkpt>
<trkpt lat="48.67685493" lon="7.00816398"><ele>267.200012208</ele><time>2011-04-29T12:17:59Z</time></trkpt>
<trkpt lat="48.67740395" lon="7.00828099"><ele>268.0000000416</ele><time>2011-04-29T12:18:09Z</time></trkpt>
<trkpt lat="48.67792396" lon="7.00838593"><ele>268.6000061568</ele><time>2011-04-29T12:18:18Z</time></trkpt>
<trkpt lat="48.67854497" lon="7.00850797"><ele>268.3999939584</ele><time>2011-04-29T12:18:28Z</time></trkpt>
<trkpt lat="48.67913095" lon="7.00854099"><ele>266.200012176</ele><time>2011-04-29T12:18:36Z</time></trkpt>
<trkpt lat="48.67968592" lon="7.00855298"><ele>266.7999878112</ele><time>2011-04-29T12:18:44Z</time></trkpt>
<trkpt lat="48.68023099" lon="7.00856396"><ele>267.6000061248</ele><time>2011-04-29T12:18:53Z</time></trkpt>
<trkpt lat="48.68063894" lon="7.00856195"><ele>268.20001224</ele><time>2011-04-29T12:19:01Z</time></trkpt>
<trkpt lat="48.68100096" lon="7.00856497"><ele>268.7999878752</ele><time>2011-04-29T12:19:09Z</time></trkpt>
<trkpt lat="48.68134797" lon="7.00858098"><ele>268.7999878752</ele><time>2011-04-29T12:19:17Z</time></trkpt>
<trkpt lat="48.68173395" lon="7.00862993"><ele>269.3999939904</ele><time>2011-04-29T12:19:26Z</time></trkpt>
<trkpt lat="48.68213293" lon="7.00875792"><ele>272.2000120632</ele><time>2011-04-29T12:19:35Z</time></trkpt>
<trkpt lat="48.68251397" lon="7.00899898"><ele>273.9999999288</ele><time>2011-04-29T12:19:44Z</time></trkpt>
<trkpt lat="48.68282796" lon="7.00931297"><ele>275.9999999928</ele><time>2011-04-29T12:19:52Z</time></trkpt>
<trkpt lat="48.68322392" lon="7.00976299"><ele>278.2000122552</ele><time>2011-04-29T12:20:02Z</time></trkpt>
<trkpt lat="48.68365198" lon="7.01029499"><ele>279.0000000888</ele><time>2011-04-29T12:20:13Z</time></trkpt>
<trkpt lat="48.68406798" lon="7.01081794"><ele>278.0000000568</ele><time>2011-04-29T12:20:24Z</time></trkpt>
<trkpt lat="48.68446193" lon="7.01123795"><ele>278.3999939736</ele><time>2011-04-29T12:20:34Z</time></trkpt>
<trkpt lat="48.68491396" lon="7.01167398"><ele>276.2000121912</ele><time>2011-04-29T12:20:45Z</time></trkpt>
<trkpt lat="48.68524396" lon="7.01200197"><ele>277.60000614</ele><time>2011-04-29T12:20:53Z</time></trkpt>
<trkpt lat="48.68572994" lon="7.01248694"><ele>278.0000000568</ele><time>2011-04-29T12:21:04Z</time></trkpt>
<trkpt lat="48.68626999" lon="7.01302397"><ele>279.0000000888</ele><time>2011-04-29T12:21:15Z</time></trkpt>
<trkpt lat="48.68664097" lon="7.01339093"><ele>278.0000000568</ele><time>2011-04-29T12:21:23Z</time></trkpt>
<trkpt lat="48.68712293" lon="7.01386593"><ele>277.7999878584</ele><time>2011-04-29T12:21:32Z</time></trkpt>
<trkpt lat="48.68768192" lon="7.01442299"><ele>276.2000121912</ele><time>2011-04-29T12:21:42Z</time></trkpt>
<trkpt lat="48.68835700" lon="7.01509497"><ele>273.9999999288</ele><time>2011-04-29T12:21:54Z</time></trkpt>
<trkpt lat="48.68900492" lon="7.01574893"><ele>271.200012336</ele><time>2011-04-29T12:22:05Z</time></trkpt>
<trkpt lat="48.68952594" lon="7.01635896"><ele>270.7999879392</ele><time>2011-04-29T12:22:15Z</time></trkpt>
<trkpt lat="48.68991293" lon="7.01687696"><ele>268.7999878752</ele><time>2011-04-29T12:22:23Z</time></trkpt>
<trkpt lat="48.69032498" lon="7.01746495"><ele>266.7999878112</ele><time>2011-04-29T12:22:31Z</time></trkpt>
<trkpt lat="48.69038500" lon="7.01753193"><ele>266.6000060928</ele><time>2011-04-29T12:22:32Z</time></trkpt>
<trkpt lat="48.69099596" lon="7.01799897"><ele>264.6000060288</ele><time>2011-04-29T12:22:41Z</time></trkpt>
<trkpt lat="48.69141296" lon="7.01827800"><ele>262.7999876832</ele><time>2011-04-29T12:22:47Z</time></trkpt>
<trkpt lat="48.69177598" lon="7.01866994"><ele>262.2000123528</ele><time>2011-04-29T12:22:53Z</time></trkpt>
<trkpt lat="48.69208795" lon="7.01918098"><ele>261.7999876512</ele><time>2011-04-29T12:22:59Z</time></trkpt>
<trkpt lat="48.69232097" lon="7.01978800"><ele>261.7999876512</ele><time>2011-04-29T12:23:05Z</time></trkpt>
<trkpt lat="48.69252792" lon="7.02065192"><ele>259.799987892</ele><time>2011-04-29T12:23:13Z</time></trkpt>
<trkpt lat="48.69281298" lon="7.02143697"><ele>259.2000122568</ele><time>2011-04-29T12:23:21Z</time></trkpt>
<trkpt lat="48.69318598" lon="7.02208799"><ele>258.2000122248</ele><time>2011-04-29T12:23:29Z</time></trkpt>
<trkpt lat="48.69359200" lon="7.02255495"><ele>258.0000000264</ele><time>2011-04-29T12:23:36Z</time></trkpt>
<trkpt lat="48.69401294" lon="7.02291395"><ele>258.2000122248</ele><time>2011-04-29T12:23:43Z</time></trkpt>
<trkpt lat="48.69442994" lon="7.02329096"><ele>257.2000121928</ele><time>2011-04-29T12:23:51Z</time></trkpt>
<trkpt lat="48.69453899" lon="7.02338895"><ele>256.9999999944</ele><time>2011-04-29T12:23:53Z</time></trkpt>
<trkpt lat="48.69490595" lon="7.02384392"><ele>256.799987796</ele><time>2011-04-29T12:24:00Z</time></trkpt>
<trkpt lat="48.69550492" lon="7.02465495"><ele>258.3999939432</ele><time>2011-04-29T12:24:11Z</time></trkpt>
<trkpt lat="48.69594396" lon="7.02515996"><ele>259.2000122568</ele><time>2011-04-29T12:24:19Z</time></trkpt>
<trkpt lat="48.69616692" lon="7.02533598"><ele>259.2000122568</ele><time>2011-04-29T12:24:23Z</time></trkpt>
<trkpt lat="48.69651292" lon="7.02543095"><ele>258.2000122248</ele><time>2011-04-29T12:24:28Z</time></trkpt>
<trkpt lat="48.69679799" lon="7.02546800"><ele>256.9999999944</ele><time>2011-04-29T12:24:32Z</time></trkpt>
<trkpt lat="48.69687594" lon="7.02547194"><ele>256.6000060776</ele><time>2011-04-29T12:24:33Z</time></trkpt>
<trkpt lat="48.69736696" lon="7.02538694"><ele>254.6000060136</ele><time>2011-04-29T12:24:40Z</time></trkpt>
<trkpt lat="48.69764398" lon="7.02539197"><ele>253.9999998984</ele><time>2011-04-29T12:24:44Z</time></trkpt>
<trkpt lat="48.69817900" lon="7.02522098"><ele>254.1999968568</ele><time>2011-04-29T12:24:52Z</time></trkpt>
<trkpt lat="48.69864897" lon="7.02509492"><ele>254.800002972</ele><time>2011-04-29T12:24:59Z</time></trkpt>
<trkpt lat="48.69934299" lon="7.02491596"><ele>254.9999999304</ele><time>2011-04-29T12:25:09Z</time></trkpt>
<trkpt lat="48.69981992" lon="7.02478797"><ele>255.1999968888</ele><time>2011-04-29T12:25:16Z</time></trkpt>
<trkpt lat="48.70062198" lon="7.02457993"><ele>253.9999998984</ele><time>2011-04-29T12:25:28Z</time></trkpt>
<trkpt lat="48.70156595" lon="7.02432395"><ele>254.800002972</ele><time>2011-04-29T12:25:42Z</time></trkpt>
<trkpt lat="48.70221497" lon="7.02406797"><ele>254.1999968568</ele><time>2011-04-29T12:25:52Z</time></trkpt>
<trkpt lat="48.70275593" lon="7.02381492"><ele>254.6000060136</ele><time>2011-04-29T12:26:01Z</time></trkpt>
<trkpt lat="48.70339598" lon="7.02351593"><ele>256.6000060776</ele><time>2011-04-29T12:26:12Z</time></trkpt>
<trkpt lat="48.70376495" lon="7.02334997"><ele>256.3999938792</ele><time>2011-04-29T12:26:19Z</time></trkpt>
<trkpt lat="48.70381197" lon="7.02332893"><ele>256.3999938792</ele><time>2011-04-29T12:26:20Z</time></trkpt>
<trkpt lat="48.70403895" lon="7.02323397"><ele>255.9999999624</ele><time>2011-04-29T12:26:26Z</time></trkpt>
<trkpt lat="48.70406896" lon="7.02321595"><ele>255.800003004</ele><time>2011-04-29T12:26:27Z</time></trkpt>
<trkpt lat="48.70416594" lon="7.02328996"><ele>255.800003004</ele><time>2011-04-29T12:26:31Z</time></trkpt>
<trkpt lat="48.70430994" lon="7.02358995"><ele>255.3999938472</ele><time>2011-04-29T12:26:38Z</time></trkpt>
<trkpt lat="48.70440398" lon="7.02379597"><ele>254.9999999304</ele><time>2011-04-29T12:26:43Z</time></trkpt>
<trkpt lat="48.70444598" lon="7.02378499"><ele>254.800002972</ele><time>2011-04-29T12:26:47Z</time></trkpt>
<trkpt lat="48.70432394" lon="7.02355198"><ele>255.3999938472</ele><time>2011-04-29T12:26:54Z</time></trkpt>
<trkpt lat="48.70418496" lon="7.02329197"><ele>255.800003004</ele><time>2011-04-29T12:27:00Z</time></trkpt>
<trkpt lat="48.70422897" lon="7.02318493"><ele>255.6000060456</ele><time>2011-04-29T12:27:04Z</time></trkpt>
<trkpt lat="48.70429795" lon="7.02317395"><ele>255.3999938472</ele><time>2011-04-29T12:27:06Z</time></trkpt>
<trkpt lat="48.70438697" lon="7.02312794"><ele>255.1999968888</ele><time>2011-04-29T12:27:08Z</time></trkpt>
<trkpt lat="48.70486700" lon="7.02285192"><ele>254.6000060136</ele><time>2011-04-29T12:27:18Z</time></trkpt>
<trkpt lat="48.70532096" lon="7.02264296"><ele>254.9999999304</ele><time>2011-04-29T12:27:27Z</time></trkpt>
<trkpt lat="48.70565699" lon="7.02249996"><ele>255.6000060456</ele><time>2011-04-29T12:27:33Z</time></trkpt>
<trkpt lat="48.70615697" lon="7.02226494"><ele>256.6000060776</ele><time>2011-04-29T12:27:42Z</time></trkpt>
<trkpt lat="48.70654992" lon="7.02203292"><ele>257.3999939112</ele><time>2011-04-29T12:27:49Z</time></trkpt>
<trkpt lat="48.70702794" lon="7.02167896"><ele>257.3999939112</ele><time>2011-04-29T12:27:58Z</time></trkpt>
<trkpt lat="48.70738098" lon="7.02135592"><ele>257.3999939112</ele><time>2011-04-29T12:28:05Z</time></trkpt>
<trkpt lat="48.70776496" lon="7.02096297"><ele>256.2000121608</ele><time>2011-04-29T12:28:13Z</time></trkpt>
<trkpt lat="48.70787099" lon="7.02077296"><ele>255.800003004</ele><time>2011-04-29T12:28:16Z</time></trkpt>
<trkpt lat="48.70803494" lon="7.02053893"><ele>255.1999968888</ele><time>2011-04-29T12:28:20Z</time></trkpt>
<trkpt lat="48.70829495" lon="7.02028396"><ele>253.80000294</ele><time>2011-04-29T12:28:26Z</time></trkpt>
<trkpt lat="48.70848999" lon="7.02020693"><ele>253.1999968248</ele><time>2011-04-29T12:28:30Z</time></trkpt>
<trkpt lat="48.70879593" lon="7.01994298"><ele>252.1999970976</ele><time>2011-04-29T12:28:36Z</time></trkpt>
<trkpt lat="48.70910196" lon="7.01962899"><ele>251.1999970656</ele><time>2011-04-29T12:28:43Z</time></trkpt>
<trkpt lat="48.70938895" lon="7.01934795"><ele>251.399994024</ele><time>2011-04-29T12:28:50Z</time></trkpt>
<trkpt lat="48.70982297" lon="7.01898996"><ele>252.6000062544</ele><time>2011-04-29T12:28:58Z</time></trkpt>
<trkpt lat="48.71026394" lon="7.01883699"><ele>252.6000062544</ele><time>2011-04-29T12:29:05Z</time></trkpt>
<trkpt lat="48.71071598" lon="7.01883498"><ele>252.0000001392</ele><time>2011-04-29T12:29:12Z</time></trkpt>
<trkpt lat="48.71129793" lon="7.01887194"><ele>252.0000001392</ele><time>2011-04-29T12:29:21Z</time></trkpt>
<trkpt lat="48.71193496" lon="7.01894193"><ele>252.3999937512</ele><time>2011-04-29T12:29:31Z</time></trkpt>
<trkpt lat="48.71265597" lon="7.01899499"><ele>253.6000059816</ele><time>2011-04-29T12:29:42Z</time></trkpt>
<trkpt lat="48.71324195" lon="7.01902793"><ele>254.1999968568</ele><time>2011-04-29T12:29:51Z</time></trkpt>
<trkpt lat="48.71396296" lon="7.01907596"><ele>253.6000059816</ele><time>2011-04-29T12:30:02Z</time></trkpt>
<trkpt lat="48.71467693" lon="7.01912600"><ele>252.6000062544</ele><time>2011-04-29T12:30:13Z</time></trkpt>
<trkpt lat="48.71541093" lon="7.01916397"><ele>251.399994024</ele><time>2011-04-29T12:30:24Z</time></trkpt>
<trkpt lat="48.71613094" lon="7.01920596"><ele>250.1999970336</ele><time>2011-04-29T12:30:35Z</time></trkpt>
<trkpt lat="48.71682596" lon="7.01925793"><ele>249.0000000432</ele><time>2011-04-29T12:30:46Z</time></trkpt>
<trkpt lat="48.71743499" lon="7.01934099"><ele>249.0000000432</ele><time>2011-04-29T12:30:56Z</time></trkpt>
<trkpt lat="48.71791695" lon="7.01944694"><ele>249.6000061584</ele><time>2011-04-29T12:31:05Z</time></trkpt>
<trkpt lat="48.71836497" lon="7.01956395"><ele>250.399993992</ele><time>2011-04-29T12:31:13Z</time></trkpt>
<trkpt lat="48.71910299" lon="7.01977794"><ele>248.8000030848</ele><time>2011-04-29T12:31:26Z</time></trkpt>
<trkpt lat="48.71970599" lon="7.01996896"><ele>248.8000030848</ele><time>2011-04-29T12:31:37Z</time></trkpt>
<trkpt lat="48.72017998" lon="7.02015999"><ele>249.39999396</ele><time>2011-04-29T12:31:46Z</time></trkpt>
<trkpt lat="48.72047394" lon="7.02030298"><ele>250.1999970336</ele><time>2011-04-29T12:31:53Z</time></trkpt>
<trkpt lat="48.72070695" lon="7.02042393"><ele>251.1999970656</ele><time>2011-04-29T12:32:00Z</time></trkpt>
<trkpt lat="48.72093595" lon="7.02055595"><ele>251.6000062224</ele><time>2011-04-29T12:32:08Z</time></trkpt>
<trkpt lat="48.72112697" lon="7.02067900"><ele>251.399994024</ele><time>2011-04-29T12:32:16Z</time></trkpt>
<trkpt lat="48.72125194" lon="7.02076499"><ele>251.1999970656</ele><time>2011-04-29T12:32:24Z</time></trkpt>
<trkpt lat="48.72126594" lon="7.02078897"><ele>251.1999970656</ele><time>2011-04-29T12:32:27Z</time></trkpt>
<trkpt lat="48.72124993" lon="7.02076793"><ele>251.1999970656</ele><time>2011-04-29T12:32:48Z</time></trkpt>
<trkpt lat="48.72124398" lon="7.02076692"><ele>251.399994024</ele><time>2011-04-29T12:32:50Z</time></trkpt>
<trkpt lat="48.72110493" lon="7.02067598"><ele>251.6000062224</ele><time>2011-04-29T12:33:04Z</time></trkpt>
<trkpt lat="48.72107492" lon="7.02065393"><ele>251.6000062224</ele><time>2011-04-29T12:33:05Z</time></trkpt>
<trkpt lat="48.72088993" lon="7.02053499"><ele>251.6000062224</ele><time>2011-04-29T12:33:10Z</time></trkpt>
<trkpt lat="48.72053596" lon="7.02034095"><ele>250.399993992</ele><time>2011-04-29T12:33:19Z</time></trkpt>
<trkpt lat="48.72006297" lon="7.02012797"><ele>249.1999970016</ele><time>2011-04-29T12:33:29Z</time></trkpt>
<trkpt lat="48.71955293" lon="7.01994197"><ele>248.8000030848</ele><time>2011-04-29T12:33:39Z</time></trkpt>
<trkpt lat="48.71907592" lon="7.01978498"><ele>248.8000030848</ele><time>2011-04-29T12:33:48Z</time></trkpt>
<trkpt lat="48.71841995" lon="7.01959899"><ele>250.1999970336</ele><time>2011-04-29T12:34:00Z</time></trkpt>
<trkpt lat="48.71798292" lon="7.01947594"><ele>249.6000061584</ele><time>2011-04-29T12:34:08Z</time></trkpt>
<trkpt lat="48.71741697" lon="7.01933898"><ele>249.0000000432</ele><time>2011-04-29T12:34:18Z</time></trkpt>
<trkpt lat="48.71683896" lon="7.01925399"><ele>249.0000000432</ele><time>2011-04-29T12:34:28Z</time></trkpt>
<trkpt lat="48.71645196" lon="7.01922197"><ele>249.39999396</ele><time>2011-04-29T12:34:35Z</time></trkpt>
<trkpt lat="48.71591996" lon="7.01918593"><ele>250.6000061904</ele><time>2011-04-29T12:34:45Z</time></trkpt>
<trkpt lat="48.71538796" lon="7.01915793"><ele>251.399994024</ele><time>2011-04-29T12:34:55Z</time></trkpt>
<trkpt lat="48.71517196" lon="7.01915299"><ele>251.8000031808</ele><time>2011-04-29T12:34:59Z</time></trkpt>
<trkpt lat="48.71461197" lon="7.01911200"><ele>252.6000062544</ele><time>2011-04-29T12:35:09Z</time></trkpt>
<trkpt lat="48.71400294" lon="7.01907193"><ele>253.6000059816</ele><time>2011-04-29T12:35:19Z</time></trkpt>
<trkpt lat="48.71318595" lon="7.01901997"><ele>254.1999968568</ele><time>2011-04-29T12:35:32Z</time></trkpt>
<trkpt lat="48.71233092" lon="7.01897194"><ele>252.9999998664</ele><time>2011-04-29T12:35:45Z</time></trkpt>
<trkpt lat="48.71147999" lon="7.01890195"><ele>252.0000001392</ele><time>2011-04-29T12:35:58Z</time></trkpt>
<trkpt lat="48.71082595" lon="7.01886096"><ele>252.0000001392</ele><time>2011-04-29T12:36:08Z</time></trkpt>
<trkpt lat="48.71019093" lon="7.01885099"><ele>252.6000062544</ele><time>2011-04-29T12:36:18Z</time></trkpt>
<trkpt lat="48.70976999" lon="7.01900697"><ele>252.3999937512</ele><time>2011-04-29T12:36:25Z</time></trkpt>
<trkpt lat="48.70939096" lon="7.01930897"><ele>251.399994024</ele><time>2011-04-29T12:36:32Z</time></trkpt>
<trkpt lat="48.70900498" lon="7.01969496"><ele>251.399994024</ele><time>2011-04-29T12:36:40Z</time></trkpt>
<trkpt lat="48.70854992" lon="7.02014892"><ele>252.9999998664</ele><time>2011-04-29T12:36:50Z</time></trkpt>
<trkpt lat="48.70851195" lon="7.02018899"><ele>253.1999968248</ele><time>2011-04-29T12:36:51Z</time></trkpt>
<trkpt lat="48.70829092" lon="7.02028798"><ele>253.80000294</ele><time>2011-04-29T12:36:56Z</time></trkpt>
<trkpt lat="48.70806595" lon="7.02047699"><ele>254.9999999304</ele><time>2011-04-29T12:37:01Z</time></trkpt>
<trkpt lat="48.70790100" lon="7.02064094"><ele>255.800003004</ele><time>2011-04-29T12:37:05Z</time></trkpt>
<trkpt lat="48.70780796" lon="7.02077597"><ele>256.2000121608</ele><time>2011-04-29T12:37:08Z</time></trkpt>
<trkpt lat="48.70773395" lon="7.02092995"><ele>256.3999938792</ele><time>2011-04-29T12:37:11Z</time></trkpt>
<trkpt lat="48.70742097" lon="7.02127193"><ele>257.6000061096</ele><time>2011-04-29T12:37:18Z</time></trkpt>
<trkpt lat="48.70696692" lon="7.02169999"><ele>257.3999939112</ele><time>2011-04-29T12:37:27Z</time></trkpt>
<trkpt lat="48.70653894" lon="7.02202496"><ele>257.3999939112</ele><time>2011-04-29T12:37:35Z</time></trkpt>
<trkpt lat="48.70613392" lon="7.02226996"><ele>256.6000060776</ele><time>2011-04-29T12:37:42Z</time></trkpt>
<trkpt lat="48.70550193" lon="7.02256895"><ele>255.3999938472</ele><time>2011-04-29T12:37:53Z</time></trkpt>
<trkpt lat="48.70504294" lon="7.02276793"><ele>254.6000060136</ele><time>2011-04-29T12:38:01Z</time></trkpt>
<trkpt lat="48.70463097" lon="7.02297396"><ele>254.800002972</ele><time>2011-04-29T12:38:09Z</time></trkpt>
<trkpt lat="48.70425898" lon="7.02319994"><ele>255.6000060456</ele><time>2011-04-29T12:38:17Z</time></trkpt>
<trkpt lat="48.70422193" lon="7.02322198"><ele>255.6000060456</ele><time>2011-04-29T12:38:18Z</time></trkpt>
<trkpt lat="48.70409394" lon="7.02320899"><ele>255.800003004</ele><time>2011-04-29T12:38:23Z</time></trkpt>
<trkpt lat="48.70404599" lon="7.02322693"><ele>255.9999999624</ele><time>2011-04-29T12:38:25Z</time></trkpt>
<trkpt lat="48.70395094" lon="7.02330194"><ele>256.2000121608</ele><time>2011-04-29T12:38:29Z</time></trkpt>
<trkpt lat="48.70373293" lon="7.02338199"><ele>256.3999938792</ele><time>2011-04-29T12:38:35Z</time></trkpt>
<trkpt lat="48.70340293" lon="7.02352792"><ele>256.6000060776</ele><time>2011-04-29T12:38:41Z</time></trkpt>
<trkpt lat="48.70288200" lon="7.02377100"><ele>254.9999999304</ele><time>2011-04-29T12:38:50Z</time></trkpt>
<trkpt lat="48.70268192" lon="7.02388398"><ele>254.3999938152</ele><time>2011-04-29T12:38:53Z</time></trkpt>
<trkpt lat="48.70208697" lon="7.02411398"><ele>254.3999938152</ele><time>2011-04-29T12:39:03Z</time></trkpt>
<trkpt lat="48.70146395" lon="7.02434096"><ele>254.800002972</ele><time>2011-04-29T12:39:13Z</time></trkpt>
<trkpt lat="48.70082793" lon="7.02451397"><ele>253.6000059816</ele><time>2011-04-29T12:39:23Z</time></trkpt>
<trkpt lat="48.70019392" lon="7.02468194"><ele>254.800002972</ele><time>2011-04-29T12:39:33Z</time></trkpt>
<trkpt lat="48.69956092" lon="7.02485595"><ele>254.9999999304</ele><time>2011-04-29T12:39:43Z</time></trkpt>
<trkpt lat="48.69906094" lon="7.02498796"><ele>254.9999999304</ele><time>2011-04-29T12:39:51Z</time></trkpt>
<trkpt lat="48.69857395" lon="7.02511495"><ele>254.6000060136</ele><time>2011-04-29T12:39:59Z</time></trkpt>
<trkpt lat="48.69802100" lon="7.02526297"><ele>254.1999968568</ele><time>2011-04-29T12:40:08Z</time></trkpt>
<trkpt lat="48.69764498" lon="7.02538594"><ele>253.9999998984</ele><time>2011-04-29T12:40:14Z</time></trkpt>
<trkpt lat="48.69716395" lon="7.02561594"><ele>255.1999968888</ele><time>2011-04-29T12:40:22Z</time></trkpt>
<trkpt lat="48.69686195" lon="7.02586798"><ele>255.3999938472</ele><time>2011-04-29T12:40:28Z</time></trkpt>
<trkpt lat="48.69655198" lon="7.02614098"><ele>256.3999938792</ele><time>2011-04-29T12:40:35Z</time></trkpt>
<trkpt lat="48.69634395" lon="7.02636000"><ele>258.3999939432</ele><time>2011-04-29T12:40:40Z</time></trkpt>
<trkpt lat="48.69617798" lon="7.02659997"><ele>260.6000062056</ele><time>2011-04-29T12:40:45Z</time></trkpt>
<trkpt lat="48.69598093" lon="7.02698395"><ele>261.7999876512</ele><time>2011-04-29T12:40:51Z</time></trkpt>
<trkpt lat="48.69578496" lon="7.02753992"><ele>260.3999940072</ele><time>2011-04-29T12:40:59Z</time></trkpt>
<trkpt lat="48.69559393" lon="7.02818398"><ele>257.2000121928</ele><time>2011-04-29T12:41:08Z</time></trkpt>
<trkpt lat="48.69534600" lon="7.02902092"><ele>257.3999939112</ele><time>2011-04-29T12:41:20Z</time></trkpt>
<trkpt lat="48.69508297" lon="7.02991099"><ele>261.0000001224</ele><time>2011-04-29T12:41:33Z</time></trkpt>
<trkpt lat="48.69488600" lon="7.03059898"><ele>260.3999940072</ele><time>2011-04-29T12:41:43Z</time></trkpt>
<trkpt lat="48.69479195" lon="7.03094599"><ele>260.0000000904</ele><time>2011-04-29T12:41:49Z</time></trkpt>
<trkpt lat="48.69466497" lon="7.03139392"><ele>260.3999940072</ele><time>2011-04-29T12:41:57Z</time></trkpt>
<trkpt lat="48.69452792" lon="7.03183799"><ele>261.6000062376</ele><time>2011-04-29T12:42:05Z</time></trkpt>
<trkpt lat="48.69439792" lon="7.03227393"><ele>262.9999998816</ele><time>2011-04-29T12:42:13Z</time></trkpt>
<trkpt lat="48.69430597" lon="7.03257392"><ele>263.7999877152</ele><time>2011-04-29T12:42:19Z</time></trkpt>
<trkpt lat="48.69421997" lon="7.03288095"><ele>264.3999938304</ele><time>2011-04-29T12:42:25Z</time></trkpt>
<trkpt lat="48.69409198" lon="7.03333198"><ele>264.7999877472</ele><time>2011-04-29T12:42:33Z</time></trkpt>
<trkpt lat="48.69402794" lon="7.03354396"><ele>265.3999938624</ele><time>2011-04-29T12:42:37Z</time></trkpt>
<trkpt lat="48.69396793" lon="7.03358897"><ele>265.6000060608</ele><time>2011-04-29T12:42:41Z</time></trkpt>
<trkpt lat="48.69396097" lon="7.03358595"><ele>265.6000060608</ele><time>2011-04-29T12:42:43Z</time></trkpt>
<trkpt lat="48.69397698" lon="7.03364295"><ele>265.7999877792</ele><time>2011-04-29T12:43:06Z</time></trkpt>
<trkpt lat="48.69394295" lon="7.03374999"><ele>266.200012176</ele><time>2011-04-29T12:44:13Z</time></trkpt>
<trkpt lat="48.69394597" lon="7.03387798"><ele>266.6000060928</ele><time>2011-04-29T12:44:20Z</time></trkpt>
<trkpt lat="48.69389492" lon="7.03403598"><ele>267.200012208</ele><time>2011-04-29T12:44:25Z</time></trkpt>
<trkpt lat="48.69382200" lon="7.03431794"><ele>267.7999878432</ele><time>2011-04-29T12:44:31Z</time></trkpt>
<trkpt lat="48.69365796" lon="7.03496595"><ele>268.3999939584</ele><time>2011-04-29T12:44:42Z</time></trkpt>
<trkpt lat="48.69351095" lon="7.03552100"><ele>268.6000061568</ele><time>2011-04-29T12:44:51Z</time></trkpt>
<trkpt lat="48.69336896" lon="7.03609499"><ele>268.3999939584</ele><time>2011-04-29T12:45:00Z</time></trkpt>
<trkpt lat="48.69321993" lon="7.03672196"><ele>268.6000061568</ele><time>2011-04-29T12:45:10Z</time></trkpt>
<trkpt lat="48.69308095" lon="7.03734792"><ele>269.7999879072</ele><time>2011-04-29T12:45:20Z</time></trkpt>
<trkpt lat="48.69300493" lon="7.03768395"><ele>269.3999939904</ele><time>2011-04-29T12:45:26Z</time></trkpt>
<trkpt lat="48.69292597" lon="7.03805896"><ele>268.7999878752</ele><time>2011-04-29T12:45:33Z</time></trkpt>
<trkpt lat="48.69283897" lon="7.03850194"><ele>268.20001224</ele><time>2011-04-29T12:45:40Z</time></trkpt>
<trkpt lat="48.69273294" lon="7.03892699"><ele>267.3999939264</ele><time>2011-04-29T12:45:47Z</time></trkpt>
<trkpt lat="48.69260796" lon="7.03928598"><ele>266.3999938944</ele><time>2011-04-29T12:45:54Z</time></trkpt>
<trkpt lat="48.69256094" lon="7.03935999"><ele>265.9999999776</ele><time>2011-04-29T12:45:58Z</time></trkpt>
<trkpt lat="48.69252599" lon="7.03929495"><ele>265.9999999776</ele><time>2011-04-29T12:46:02Z</time></trkpt>
<trkpt lat="48.69252398" lon="7.03910292"><ele>265.9999999776</ele><time>2011-04-29T12:46:06Z</time></trkpt>
<trkpt lat="48.69261299" lon="7.03865097"><ele>266.6000060928</ele><time>2011-04-29T12:46:13Z</time></trkpt>
<trkpt lat="48.69272196" lon="7.03835492"><ele>267.3999939264</ele><time>2011-04-29T12:46:19Z</time></trkpt>
<trkpt lat="48.69281793" lon="7.03809994"><ele>268.0000000416</ele><time>2011-04-29T12:46:25Z</time></trkpt>
<trkpt lat="48.69286898" lon="7.03784295"><ele>268.20001224</ele><time>2011-04-29T12:46:32Z</time></trkpt>
<trkpt lat="48.69283696" lon="7.03773298"><ele>267.7999878432</ele><time>2011-04-29T12:46:36Z</time></trkpt>
<trkpt lat="48.69260897" lon="7.03756099"><ele>265.200012144</ele><time>2011-04-29T12:46:44Z</time></trkpt>
<trkpt lat="48.69258500" lon="7.03730492"><ele>264.9999999456</ele><time>2011-04-29T12:46:48Z</time></trkpt>
<trkpt lat="48.69269497" lon="7.03657997"><ele>265.7999877792</ele><time>2011-04-29T12:46:56Z</time></trkpt>
<trkpt lat="48.69280796" lon="7.03577799"><ele>265.200012144</ele><time>2011-04-29T12:47:05Z</time></trkpt>
<trkpt lat="48.69292296" lon="7.03509394"><ele>264.6000060288</ele><time>2011-04-29T12:47:13Z</time></trkpt>
<trkpt lat="48.69304592" lon="7.03434292"><ele>264.9999999456</ele><time>2011-04-29T12:47:21Z</time></trkpt>
<trkpt lat="48.69320593" lon="7.03354899"><ele>263.9999999136</ele><time>2011-04-29T12:47:29Z</time></trkpt>
<trkpt lat="48.69330492" lon="7.03304700"><ele>263.3999937984</ele><time>2011-04-29T12:47:34Z</time></trkpt>
<trkpt lat="48.69331498" lon="7.03240595"><ele>262.6000059648</ele><time>2011-04-29T12:47:40Z</time></trkpt>
<trkpt lat="48.69328195" lon="7.03169994"><ele>260.799987924</ele><time>2011-04-29T12:47:46Z</time></trkpt>
<trkpt lat="48.69325597" lon="7.03066796"><ele>258.2000122248</ele><time>2011-04-29T12:47:54Z</time></trkpt>
<trkpt lat="48.69329494" lon="7.03015792"><ele>256.3999938792</ele><time>2011-04-29T12:47:58Z</time></trkpt>
<trkpt lat="48.69341497" lon="7.02930599"><ele>255.1999968888</ele><time>2011-04-29T12:48:05Z</time></trkpt>
<trkpt lat="48.69339796" lon="7.02856595"><ele>255.6000060456</ele><time>2011-04-29T12:48:11Z</time></trkpt>
<trkpt lat="48.69338597" lon="7.02844500"><ele>255.800003004</ele><time>2011-04-29T12:48:12Z</time></trkpt>
<trkpt lat="48.69325195" lon="7.02802297"><ele>255.3999938472</ele><time>2011-04-29T12:48:16Z</time></trkpt>
<trkpt lat="48.69306796" lon="7.02783194"><ele>255.1999968888</ele><time>2011-04-29T12:48:19Z</time></trkpt>
<trkpt lat="48.69299999" lon="7.02779800"><ele>255.1999968888</ele><time>2011-04-29T12:48:20Z</time></trkpt>
<trkpt lat="48.69246698" lon="7.02757395"><ele>254.9999999304</ele><time>2011-04-29T12:48:28Z</time></trkpt>
<trkpt lat="48.69240395" lon="7.02753497"><ele>254.9999999304</ele><time>2011-04-29T12:48:29Z</time></trkpt>
<trkpt lat="48.69216096" lon="7.02722895"><ele>255.3999938472</ele><time>2011-04-29T12:48:34Z</time></trkpt>
<trkpt lat="48.69209298" lon="7.02696299"><ele>255.3999938472</ele><time>2011-04-29T12:48:37Z</time></trkpt>
<trkpt lat="48.69214394" lon="7.02669393"><ele>255.3999938472</ele><time>2011-04-29T12:48:40Z</time></trkpt>
<trkpt lat="48.69217898" lon="7.02661699"><ele>255.1999968888</ele><time>2011-04-29T12:48:41Z</time></trkpt>
<trkpt lat="48.69245097" lon="7.02609999"><ele>254.1999968568</ele><time>2011-04-29T12:48:49Z</time></trkpt>
<trkpt lat="48.69277996" lon="7.02557797"><ele>254.6000060136</ele><time>2011-04-29T12:48:57Z</time></trkpt>
<trkpt lat="48.69327500" lon="7.02481898"><ele>255.6000060456</ele><time>2011-04-29T12:49:08Z</time></trkpt>
<trkpt lat="48.69367892" lon="7.02420794"><ele>254.6000060136</ele><time>2011-04-29T12:49:17Z</time></trkpt>
<trkpt lat="48.69400397" lon="7.02373093"><ele>255.1999968888</ele><time>2011-04-29T12:49:25Z</time></trkpt>
<trkpt lat="48.69415593" lon="7.02348492"><ele>255.6000060456</ele><time>2011-04-29T12:49:30Z</time></trkpt>
<trkpt lat="48.69412098" lon="7.02331896"><ele>255.9999999624</ele><time>2011-04-29T12:49:34Z</time></trkpt>
<trkpt lat="48.69407798" lon="7.02325894"><ele>256.3999938792</ele><time>2011-04-29T12:49:38Z</time></trkpt>
<trkpt lat="48.69407798" lon="7.02325995"><ele>256.3999938792</ele><time>2011-04-29T12:49:39Z</time></trkpt>
<trkpt lat="48.69389299" lon="7.02310598"><ele>257.2000121928</ele><time>2011-04-29T12:50:51Z</time></trkpt>
<trkpt lat="48.69361798" lon="7.02283298"><ele>257.6000061096</ele><time>2011-04-29T12:50:57Z</time></trkpt>
<trkpt lat="48.69304500" lon="7.02227198"><ele>257.799987828</ele><time>2011-04-29T12:51:08Z</time></trkpt>
<trkpt lat="48.69258299" lon="7.02182597"><ele>258.0000000264</ele><time>2011-04-29T12:51:17Z</time></trkpt>
<trkpt lat="48.69211796" lon="7.02136497"><ele>257.6000061096</ele><time>2011-04-29T12:51:26Z</time></trkpt>
<trkpt lat="48.69158093" lon="7.02083993"><ele>256.799987796</ele><time>2011-04-29T12:51:36Z</time></trkpt>
<trkpt lat="48.69109595" lon="7.02036593"><ele>257.799987828</ele><time>2011-04-29T12:51:45Z</time></trkpt>
<trkpt lat="48.69056194" lon="7.01984298"><ele>259.6000061736</ele><time>2011-04-29T12:51:55Z</time></trkpt>
<trkpt lat="48.69007797" lon="7.01935600"><ele>257.3999939112</ele><time>2011-04-29T12:52:04Z</time></trkpt>
<trkpt lat="48.68937599" lon="7.01865996"><ele>258.2000122248</ele><time>2011-04-29T12:52:17Z</time></trkpt>
<trkpt lat="48.68874097" lon="7.01802696"><ele>256.9999999944</ele><time>2011-04-29T12:52:29Z</time></trkpt>
<trkpt lat="48.68809498" lon="7.01738893"><ele>256.6000060776</ele><time>2011-04-29T12:52:41Z</time></trkpt>
<trkpt lat="48.68745293" lon="7.01676297"><ele>257.6000061096</ele><time>2011-04-29T12:52:53Z</time></trkpt>
<trkpt lat="48.68692897" lon="7.01624396"><ele>258.2000122248</ele><time>2011-04-29T12:53:03Z</time></trkpt>
<trkpt lat="48.68628298" lon="7.01560694"><ele>259.3999939752</ele><time>2011-04-29T12:53:15Z</time></trkpt>
<trkpt lat="48.68569499" lon="7.01502297"><ele>260.3999940072</ele><time>2011-04-29T12:53:26Z</time></trkpt>
<trkpt lat="48.68520498" lon="7.01454696"><ele>261.2000123208</ele><time>2011-04-29T12:53:35Z</time></trkpt>
<trkpt lat="48.68465396" lon="7.01399996"><ele>261.9999998496</ele><time>2011-04-29T12:53:45Z</time></trkpt>
<trkpt lat="48.68400394" lon="7.01335698"><ele>261.2000123208</ele><time>2011-04-29T12:53:57Z</time></trkpt>
<trkpt lat="48.68331294" lon="7.01267696"><ele>259.3999939752</ele><time>2011-04-29T12:54:10Z</time></trkpt>
<trkpt lat="48.68290298" lon="7.01227396"><ele>260.6000062056</ele><time>2011-04-29T12:54:18Z</time></trkpt>
<trkpt lat="48.68233292" lon="7.01171698"><ele>261.9999998496</ele><time>2011-04-29T12:54:29Z</time></trkpt>
<trkpt lat="48.68196999" lon="7.01136293"><ele>262.2000123528</ele><time>2011-04-29T12:54:37Z</time></trkpt>
<trkpt lat="48.68172892" lon="7.01112296"><ele>262.2000123528</ele><time>2011-04-29T12:54:44Z</time></trkpt>
<trkpt lat="48.68157696" lon="7.01099698"><ele>262.2000123528</ele><time>2011-04-29T12:54:49Z</time></trkpt>
<trkpt lat="48.68133397" lon="7.01073093"><ele>262.6000059648</ele><time>2011-04-29T12:54:55Z</time></trkpt>
<trkpt lat="48.68092895" lon="7.01033497"><ele>262.9999998816</ele><time>2011-04-29T12:55:03Z</time></trkpt>
<trkpt lat="48.68046099" lon="7.00993398"><ele>262.3999937664</ele><time>2011-04-29T12:55:12Z</time></trkpt>
<trkpt lat="48.68005992" lon="7.00970792"><ele>261.9999998496</ele><time>2011-04-29T12:55:19Z</time></trkpt>
<trkpt lat="48.67956396" lon="7.00955696"><ele>263.6000059968</ele><time>2011-04-29T12:55:27Z</time></trkpt>
<trkpt lat="48.67903892" lon="7.00941799"><ele>264.3999938304</ele><time>2011-04-29T12:55:35Z</time></trkpt>
<trkpt lat="48.67853592" lon="7.00927592"><ele>265.3999938624</ele><time>2011-04-29T12:55:43Z</time></trkpt>
<trkpt lat="48.67797199" lon="7.00913192"><ele>265.6000060608</ele><time>2011-04-29T12:55:52Z</time></trkpt>
<trkpt lat="48.67737897" lon="7.00897392"><ele>265.3999938624</ele><time>2011-04-29T12:56:01Z</time></trkpt>
<trkpt lat="48.67712298" lon="7.00889295"><ele>265.200012144</ele><time>2011-04-29T12:56:05Z</time></trkpt>
<trkpt lat="48.67668595" lon="7.00875197"><ele>264.9999999456</ele><time>2011-04-29T12:56:12Z</time></trkpt>
<trkpt lat="48.67609997" lon="7.00859598"><ele>264.9999999456</ele><time>2011-04-29T12:56:21Z</time></trkpt>
<trkpt lat="48.67546094" lon="7.00843194"><ele>264.7999877472</ele><time>2011-04-29T12:56:31Z</time></trkpt>
<trkpt lat="48.67481997" lon="7.00827797"><ele>264.6000060288</ele><time>2011-04-29T12:56:41Z</time></trkpt>
<trkpt lat="48.67418496" lon="7.00813497"><ele>263.3999937984</ele><time>2011-04-29T12:56:51Z</time></trkpt>
<trkpt lat="48.67385396" lon="7.00810195"><ele>262.7999876832</ele><time>2011-04-29T12:56:57Z</time></trkpt>
<trkpt lat="48.67357098" lon="7.00812693"><ele>261.9999998496</ele><time>2011-04-29T12:57:03Z</time></trkpt>
<trkpt lat="48.67314493" lon="7.00821393"><ele>261.2000123208</ele><time>2011-04-29T12:57:12Z</time></trkpt>
<trkpt lat="48.67274595" lon="7.00835793"><ele>261.0000001224</ele><time>2011-04-29T12:57:20Z</time></trkpt>
<trkpt lat="48.67222192" lon="7.00869095"><ele>261.0000001224</ele><time>2011-04-29T12:57:31Z</time></trkpt>
<trkpt lat="48.67183493" lon="7.00902899"><ele>261.6000062376</ele><time>2011-04-29T12:57:39Z</time></trkpt>
<trkpt lat="48.67141499" lon="7.00953400"><ele>261.7999876512</ele><time>2011-04-29T12:57:48Z</time></trkpt>
<trkpt lat="48.67113193" lon="7.00998796"><ele>261.6000062376</ele><time>2011-04-29T12:57:55Z</time></trkpt>
<trkpt lat="48.67106396" lon="7.01010296"><ele>261.7999876512</ele><time>2011-04-29T12:57:57Z</time></trkpt>
<trkpt lat="48.67086397" lon="7.01053195"><ele>262.3999937664</ele><time>2011-04-29T12:58:05Z</time></trkpt>
<trkpt lat="48.67072499" lon="7.01087292"><ele>262.7999876832</ele><time>2011-04-29T12:58:13Z</time></trkpt>
<trkpt lat="48.67063397" lon="7.01113896"><ele>262.6000059648</ele><time>2011-04-29T12:58:18Z</time></trkpt>
<trkpt lat="48.67047597" lon="7.01171396"><ele>263.3999937984</ele><time>2011-04-29T12:58:26Z</time></trkpt>
<trkpt lat="48.67037295" lon="7.01227798"><ele>265.6000060608</ele><time>2011-04-29T12:58:33Z</time></trkpt>
<trkpt lat="48.67030900" lon="7.01290193"><ele>267.3999939264</ele><time>2011-04-29T12:58:40Z</time></trkpt>
<trkpt lat="48.67029693" lon="7.01340593"><ele>268.3999939584</ele><time>2011-04-29T12:58:46Z</time></trkpt>
<trkpt lat="48.67029894" lon="7.01356494"><ele>267.7999878432</ele><time>2011-04-29T12:58:48Z</time></trkpt>
<trkpt lat="48.67030095" lon="7.01393500"><ele>266.7999878112</ele><time>2011-04-29T12:58:53Z</time></trkpt>
<trkpt lat="48.67030397" lon="7.01414798"><ele>266.200012176</ele><time>2011-04-29T12:58:57Z</time></trkpt>
<trkpt lat="48.67025393" lon="7.01418595"><ele>266.200012176</ele><time>2011-04-29T12:59:01Z</time></trkpt>
<trkpt lat="48.67006894" lon="7.01417900"><ele>266.7999878112</ele><time>2011-04-29T12:59:08Z</time></trkpt>
<trkpt lat="48.66988496" lon="7.01418495"><ele>266.7999878112</ele><time>2011-04-29T12:59:12Z</time></trkpt>
<trkpt lat="48.66946192" lon="7.01416693"><ele>266.200012176</ele><time>2011-04-29T12:59:19Z</time></trkpt>
<trkpt lat="48.66893495" lon="7.01415997"><ele>266.3999938944</ele><time>2011-04-29T12:59:28Z</time></trkpt>
<trkpt lat="48.66862499" lon="7.01428696"><ele>267.0000000096</ele><time>2011-04-29T12:59:34Z</time></trkpt>
<trkpt lat="48.66848795" lon="7.01439894"><ele>267.200012208</ele><time>2011-04-29T12:59:37Z</time></trkpt>
<trkpt lat="48.66830095" lon="7.01463698"><ele>267.3999939264</ele><time>2011-04-29T12:59:42Z</time></trkpt>
<trkpt lat="48.66815493" lon="7.01486698"><ele>267.0000000096</ele><time>2011-04-29T12:59:47Z</time></trkpt>
<trkpt lat="48.66792192" lon="7.01507594"><ele>266.7999878112</ele><time>2011-04-29T12:59:54Z</time></trkpt>
<trkpt lat="48.66767700" lon="7.01519597"><ele>266.7999878112</ele><time>2011-04-29T13:00:00Z</time></trkpt>
<trkpt lat="48.66749293" lon="7.01523696"><ele>267.0000000096</ele><time>2011-04-29T13:00:06Z</time></trkpt>
<trkpt lat="48.66749394" lon="7.01523897"><ele>267.0000000096</ele><time>2011-04-29T13:00:07Z</time></trkpt>
<trkpt lat="48.66741993" lon="7.01525297"><ele>267.200012208</ele><time>2011-04-29T13:00:29Z</time></trkpt>
<trkpt lat="48.66722396" lon="7.01523897"><ele>267.6000061248</ele><time>2011-04-29T13:00:33Z</time></trkpt>
<trkpt lat="48.66680696" lon="7.01510997"><ele>268.6000061568</ele><time>2011-04-29T13:00:40Z</time></trkpt>
<trkpt lat="48.66661694" lon="7.01502800"><ele>269.0000000736</ele><time>2011-04-29T13:00:43Z</time></trkpt>
<trkpt lat="48.66630999" lon="7.01482197"><ele>269.200012272</ele><time>2011-04-29T13:00:48Z</time></trkpt>
<trkpt lat="48.66598997" lon="7.01465894"><ele>269.6000061888</ele><time>2011-04-29T13:00:53Z</time></trkpt>
<trkpt lat="48.66558697" lon="7.01462994"><ele>269.200012272</ele><time>2011-04-29T13:00:59Z</time></trkpt>
<trkpt lat="48.66512798" lon="7.01461695"><ele>267.7999878432</ele><time>2011-04-29T13:01:06Z</time></trkpt>
<trkpt lat="48.66475096" lon="7.01452794"><ele>266.7999878112</ele><time>2011-04-29T13:01:12Z</time></trkpt>
<trkpt lat="48.66432692" lon="7.01433297"><ele>265.6000060608</ele><time>2011-04-29T13:01:19Z</time></trkpt>
<trkpt lat="48.66395292" lon="7.01428595"><ele>264.9999999456</ele><time>2011-04-29T13:01:25Z</time></trkpt>
<trkpt lat="48.66340198" lon="7.01434697"><ele>264.9999999456</ele><time>2011-04-29T13:01:34Z</time></trkpt>
<trkpt lat="48.66289797" lon="7.01440196"><ele>266.7999878112</ele><time>2011-04-29T13:01:42Z</time></trkpt>
<trkpt lat="48.66276797" lon="7.01436994"><ele>267.200012208</ele><time>2011-04-29T13:01:44Z</time></trkpt>
<trkpt lat="48.66250092" lon="7.01413994"><ele>267.7999878432</ele><time>2011-04-29T13:01:49Z</time></trkpt>
<trkpt lat="48.66243194" lon="7.01398596"><ele>267.200012208</ele><time>2011-04-29T13:01:51Z</time></trkpt>
<trkpt lat="48.66226497" lon="7.01358698"><ele>266.200012176</ele><time>2011-04-29T13:01:56Z</time></trkpt>
<trkpt lat="48.66202399" lon="7.01331792"><ele>266.6000060928</ele><time>2011-04-29T13:02:01Z</time></trkpt>
<trkpt lat="48.66190899" lon="7.01325397"><ele>267.0000000096</ele><time>2011-04-29T13:02:03Z</time></trkpt>
<trkpt lat="48.66147799" lon="7.01303294"><ele>268.3999939584</ele><time>2011-04-29T13:02:11Z</time></trkpt>
<trkpt lat="48.66127892" lon="7.01293797"><ele>268.6000061568</ele><time>2011-04-29T13:02:16Z</time></trkpt>
<trkpt lat="48.66118094" lon="7.01300494"><ele>268.6000061568</ele><time>2011-04-29T13:02:20Z</time></trkpt>
<trkpt lat="48.66105999" lon="7.01333293"><ele>268.6000061568</ele><time>2011-04-29T13:02:26Z</time></trkpt>
<trkpt lat="48.66099796" lon="7.01352697"><ele>268.20001224</ele><time>2011-04-29T13:02:29Z</time></trkpt>
<trkpt lat="48.66088397" lon="7.01376895"><ele>267.7999878432</ele><time>2011-04-29T13:02:33Z</time></trkpt>
<trkpt lat="48.66069797" lon="7.01386593"><ele>267.6000061248</ele><time>2011-04-29T13:02:37Z</time></trkpt>
<trkpt lat="48.66064793" lon="7.01383492"><ele>267.6000061248</ele><time>2011-04-29T13:02:38Z</time></trkpt>
<trkpt lat="48.66028793" lon="7.01347098"><ele>267.3999939264</ele><time>2011-04-29T13:02:45Z</time></trkpt>
<trkpt lat="48.65994092" lon="7.01320997"><ele>267.200012208</ele><time>2011-04-29T13:02:51Z</time></trkpt>
<trkpt lat="48.65938495" lon="7.01301492"><ele>268.0000000416</ele><time>2011-04-29T13:03:00Z</time></trkpt>
<trkpt lat="48.65874692" lon="7.01296396"><ele>267.7999878432</ele><time>2011-04-29T13:03:10Z</time></trkpt>
<trkpt lat="48.65818793" lon="7.01289799"><ele>267.200012208</ele><time>2011-04-29T13:03:19Z</time></trkpt>
<trkpt lat="48.65764193" lon="7.01262793"><ele>266.3999938944</ele><time>2011-04-29T13:03:28Z</time></trkpt>
<trkpt lat="48.65686292" lon="7.01217195"><ele>267.3999939264</ele><time>2011-04-29T13:03:41Z</time></trkpt>
<trkpt lat="48.65632497" lon="7.01190599"><ele>267.6000061248</ele><time>2011-04-29T13:03:50Z</time></trkpt>
<trkpt lat="48.65570898" lon="7.01167197"><ele>266.7999878112</ele><time>2011-04-29T13:04:00Z</time></trkpt>
<trkpt lat="48.65515494" lon="7.01148497"><ele>267.0000000096</ele><time>2011-04-29T13:04:09Z</time></trkpt>
<trkpt lat="48.65491798" lon="7.01140895"><ele>266.7999878112</ele><time>2011-04-29T13:04:13Z</time></trkpt>
<trkpt lat="48.65473995" lon="7.01120694"><ele>266.6000060928</ele><time>2011-04-29T13:04:17Z</time></trkpt>
<trkpt lat="48.65470994" lon="7.01093093"><ele>266.6000060928</ele><time>2011-04-29T13:04:20Z</time></trkpt>
<trkpt lat="48.65467692" lon="7.01005996"><ele>266.6000060928</ele><time>2011-04-29T13:04:29Z</time></trkpt>
<trkpt lat="48.65459193" lon="7.00927894"><ele>267.6000061248</ele><time>2011-04-29T13:04:38Z</time></trkpt>
<trkpt lat="48.65447399" lon="7.00825299"><ele>267.200012208</ele><time>2011-04-29T13:04:50Z</time></trkpt>
<trkpt lat="48.65437693" lon="7.00738194"><ele>267.3999939264</ele><time>2011-04-29T13:05:00Z</time></trkpt>
<trkpt lat="48.65430895" lon="7.00674995"><ele>268.7999878752</ele><time>2011-04-29T13:05:08Z</time></trkpt>
<trkpt lat="48.65424793" lon="7.00629892"><ele>270.6000062208</ele><time>2011-04-29T13:05:15Z</time></trkpt>
<trkpt lat="48.65416093" lon="7.00568494"><ele>273.600006012</ele><time>2011-04-29T13:05:26Z</time></trkpt>
<trkpt lat="48.65408599" lon="7.00518798"><ele>276.2000121912</ele><time>2011-04-29T13:05:35Z</time></trkpt>
<trkpt lat="48.65402598" lon="7.00474399"><ele>278.600006172</ele><time>2011-04-29T13:05:44Z</time></trkpt>
<trkpt lat="48.65399698" lon="7.00450192"><ele>279.600006204</ele><time>2011-04-29T13:05:51Z</time></trkpt>
<trkpt lat="48.65393093" lon="7.00409699"><ele>281.3999937648</ele><time>2011-04-29T13:06:02Z</time></trkpt>
<trkpt lat="48.65388894" lon="7.00376197"><ele>282.7999877136</ele><time>2011-04-29T13:06:11Z</time></trkpt>
<trkpt lat="48.65384392" lon="7.00337296"><ele>284.6000060592</ele><time>2011-04-29T13:06:21Z</time></trkpt>
<trkpt lat="48.65385792" lon="7.00305596"><ele>285.7999878096</ele><time>2011-04-29T13:06:29Z</time></trkpt>
<trkpt lat="48.65387100" lon="7.00291699"><ele>286.2000122064</ele><time>2011-04-29T13:06:33Z</time></trkpt>
<trkpt lat="48.65386899" lon="7.00275899"><ele>287.00000004</ele><time>2011-04-29T13:06:39Z</time></trkpt>
<trkpt lat="48.65385097" lon="7.00271700"><ele>287.2000122384</ele><time>2011-04-29T13:06:44Z</time></trkpt>
<trkpt lat="48.65387695" lon="7.00268992"><ele>287.2000122384</ele><time>2011-04-29T13:07:09Z</time></trkpt>
<trkpt lat="48.65388592" lon="7.00256294"><ele>287.6000061552</ele><time>2011-04-29T13:07:14Z</time></trkpt>
<trkpt lat="48.65387795" lon="7.00242598"><ele>288.3999939888</ele><time>2011-04-29T13:07:18Z</time></trkpt>
<trkpt lat="48.65384292" lon="7.00222800"><ele>289.6000062192</ele><time>2011-04-29T13:07:27Z</time></trkpt>
<trkpt lat="48.65375893" lon="7.00216999"><ele>290.399993748</ele><time>2011-04-29T13:07:32Z</time></trkpt>
<trkpt lat="48.65358392" lon="7.00206396"><ele>291.9999998952</ele><time>2011-04-29T13:07:39Z</time></trkpt>
<trkpt lat="48.65340899" lon="7.00200696"><ele>293.6000060424</ele><time>2011-04-29T13:07:45Z</time></trkpt>
<trkpt lat="48.65313197" lon="7.00190999"><ele>296.6000061384</ele><time>2011-04-29T13:07:55Z</time></trkpt>
<trkpt lat="48.65292694" lon="7.00194494"><ele>298.0000000872</ele><time>2011-04-29T13:08:02Z</time></trkpt>
<trkpt lat="48.65268798" lon="7.00206396"><ele>298.399994004</ele><time>2011-04-29T13:08:11Z</time></trkpt>
<trkpt lat="48.65250098" lon="7.00218399"><ele>297.7999878888</ele><time>2011-04-29T13:08:17Z</time></trkpt>
<trkpt lat="48.65217995" lon="7.00227996"><ele>298.399994004</ele><time>2011-04-29T13:08:24Z</time></trkpt>
<trkpt lat="48.65160294" lon="7.00239999"><ele>300.6000059616</ele><time>2011-04-29T13:08:36Z</time></trkpt>
<trkpt lat="48.65127294" lon="7.00256294"><ele>303.2000121408</ele><time>2011-04-29T13:08:43Z</time></trkpt>
<trkpt lat="48.65090397" lon="7.00292998"><ele>302.799987744</ele><time>2011-04-29T13:08:52Z</time></trkpt>
<trkpt lat="48.65031095" lon="7.00354898"><ele>298.7999879208</ele><time>2011-04-29T13:09:06Z</time></trkpt>
<trkpt lat="48.65002295" lon="7.00369399"><ele>299.0000001192</ele><time>2011-04-29T13:09:12Z</time></trkpt>
<trkpt lat="48.64971793" lon="7.00372199"><ele>299.2000123176</ele><time>2011-04-29T13:09:18Z</time></trkpt>
<trkpt lat="48.64924997" lon="7.00363993"><ele>300.9999998784</ele><time>2011-04-29T13:09:26Z</time></trkpt>
<trkpt lat="48.64891293" lon="7.00341395"><ele>302.9999999424</ele><time>2011-04-29T13:09:32Z</time></trkpt>
<trkpt lat="48.64854597" lon="7.00302193"><ele>310.3999937784</ele><time>2011-04-29T13:09:40Z</time></trkpt>
<trkpt lat="48.64831497" lon="7.00285999"><ele>313.3999938744</ele><time>2011-04-29T13:09:45Z</time></trkpt>
<trkpt lat="48.64801498" lon="7.00280400"><ele>313.200012156</ele><time>2011-04-29T13:09:51Z</time></trkpt>
<trkpt lat="48.64765196" lon="7.00284993"><ele>309.7999876632</ele><time>2011-04-29T13:09:58Z</time></trkpt>
<trkpt lat="48.64723898" lon="7.00302092"><ele>305.0000000064</ele><time>2011-04-29T13:10:05Z</time></trkpt>
<trkpt lat="48.64681696" lon="7.00321899"><ele>300.9999998784</ele><time>2011-04-29T13:10:11Z</time></trkpt>
<trkpt lat="48.64636098" lon="7.00350196"><ele>298.2000122856</ele><time>2011-04-29T13:10:17Z</time></trkpt>
<trkpt lat="48.64583896" lon="7.00369994"><ele>296.7999878568</ele><time>2011-04-29T13:10:24Z</time></trkpt>
<trkpt lat="48.64553193" lon="7.00374294"><ele>295.6000061064</ele><time>2011-04-29T13:10:29Z</time></trkpt>
<trkpt lat="48.64523395" lon="7.00371394"><ele>295.6000061064</ele><time>2011-04-29T13:10:35Z</time></trkpt>
<trkpt lat="48.64485593" lon="7.00355100"><ele>296.39999394</ele><time>2011-04-29T13:10:42Z</time></trkpt>
<trkpt lat="48.64443993" lon="7.00329593"><ele>296.2000122216</ele><time>2011-04-29T13:10:50Z</time></trkpt>
<trkpt lat="48.64426400" lon="7.00319493"><ele>295.399993908</ele><time>2011-04-29T13:10:53Z</time></trkpt>
<trkpt lat="48.64382495" lon="7.00276796"><ele>294.7999877928</ele><time>2011-04-29T13:11:01Z</time></trkpt>
<trkpt lat="48.64341399" lon="7.00230494"><ele>293.2000121256</ele><time>2011-04-29T13:11:08Z</time></trkpt>
<trkpt lat="48.64292398" lon="7.00159499"><ele>291.39999378</ele><time>2011-04-29T13:11:16Z</time></trkpt>
<trkpt lat="48.64240598" lon="7.00075395"><ele>291.7999876968</ele><time>2011-04-29T13:11:25Z</time></trkpt>
<trkpt lat="48.64203399" lon="6.99999397"><ele>293.2000121256</ele><time>2011-04-29T13:11:33Z</time></trkpt>
<trkpt lat="48.64185093" lon="6.99965400"><ele>291.9999998952</ele><time>2011-04-29T13:11:38Z</time></trkpt>
<trkpt lat="48.64181497" lon="6.99959499"><ele>291.7999876968</ele><time>2011-04-29T13:11:39Z</time></trkpt>
<trkpt lat="48.64158992" lon="6.99943297"><ele>292.7999877288</ele><time>2011-04-29T13:11:44Z</time></trkpt>
<trkpt lat="48.64149897" lon="6.99944998"><ele>292.6000060104</ele><time>2011-04-29T13:11:46Z</time></trkpt>
<trkpt lat="48.64110293" lon="6.99968199"><ele>291.6000059784</ele><time>2011-04-29T13:11:54Z</time></trkpt>
<trkpt lat="48.64068199" lon="6.99979096"><ele>291.6000059784</ele><time>2011-04-29T13:12:01Z</time></trkpt>
<trkpt lat="48.64019693" lon="6.99985298"><ele>292.6000060104</ele><time>2011-04-29T13:12:09Z</time></trkpt>
<trkpt lat="48.63969695" lon="6.99994493"><ele>293.399993844</ele><time>2011-04-29T13:12:17Z</time></trkpt>
<trkpt lat="48.63931599" lon="7.00012397"><ele>293.7999877608</ele><time>2011-04-29T13:12:24Z</time></trkpt>
<trkpt lat="48.63909697" lon="7.00038197"><ele>293.9999999592</ele><time>2011-04-29T13:12:29Z</time></trkpt>
<trkpt lat="48.63874393" lon="7.00102293"><ele>291.9999998952</ele><time>2011-04-29T13:12:38Z</time></trkpt>
<trkpt lat="48.63846799" lon="7.00138193"><ele>290.7999876648</ele><time>2011-04-29T13:12:43Z</time></trkpt>
<trkpt lat="48.63810900" lon="7.00174193"><ele>288.7999879056</ele><time>2011-04-29T13:12:48Z</time></trkpt>
<trkpt lat="48.63793792" lon="7.00190093"><ele>287.3999939568</ele><time>2011-04-29T13:12:50Z</time></trkpt>
<trkpt lat="48.63755294" lon="7.00240695"><ele>283.6000060272</ele><time>2011-04-29T13:12:55Z</time></trkpt>
<trkpt lat="48.63741992" lon="7.00277994"><ele>281.7999876816</ele><time>2011-04-29T13:13:00Z</time></trkpt>
<trkpt lat="48.63741296" lon="7.00307499"><ele>280.7999876496</ele><time>2011-04-29T13:13:03Z</time></trkpt>
<trkpt lat="48.63750592" lon="7.00394997"><ele>279.2000122872</ele><time>2011-04-29T13:13:11Z</time></trkpt>
<trkpt lat="48.63765093" lon="7.00483594"><ele>278.7999878904</ele><time>2011-04-29T13:13:19Z</time></trkpt>
<trkpt lat="48.63762092" lon="7.00526392"><ele>278.600006172</ele><time>2011-04-29T13:13:23Z</time></trkpt>
<trkpt lat="48.63744993" lon="7.00599197"><ele>279.2000122872</ele><time>2011-04-29T13:13:31Z</time></trkpt>
<trkpt lat="48.63737298" lon="7.00652297"><ele>280.2000123192</ele><time>2011-04-29T13:13:38Z</time></trkpt>
<trkpt lat="48.63733593" lon="7.00688096"><ele>280.600006236</ele><time>2011-04-29T13:13:44Z</time></trkpt>
<trkpt lat="48.63731992" lon="7.00692496"><ele>280.7999876496</ele><time>2011-04-29T13:13:45Z</time></trkpt>
<trkpt lat="48.63720392" lon="7.00695899"><ele>281.99999988</ele><time>2011-04-29T13:13:49Z</time></trkpt>
<trkpt lat="48.63717693" lon="7.00693795"><ele>282.2000120784</ele><time>2011-04-29T13:13:50Z</time></trkpt>
<trkpt lat="48.63696193" lon="7.00671592"><ele>284.6000060592</ele><time>2011-04-29T13:14:00Z</time></trkpt>
<trkpt lat="48.63683495" lon="7.00669295"><ele>286.000000008</ele><time>2011-04-29T13:14:05Z</time></trkpt>
<trkpt lat="48.63663093" lon="7.00676596"><ele>288.000000072</ele><time>2011-04-29T13:14:13Z</time></trkpt>
<trkpt lat="48.63640093" lon="7.00686998"><ele>289.2000123024</ele><time>2011-04-29T13:14:22Z</time></trkpt>
<trkpt lat="48.63619197" lon="7.00698598"><ele>290.399993748</ele><time>2011-04-29T13:14:30Z</time></trkpt>
<trkpt lat="48.63595694" lon="7.00708598"><ele>291.6000059784</ele><time>2011-04-29T13:14:39Z</time></trkpt>
<trkpt lat="48.63571093" lon="7.00709897"><ele>293.2000121256</ele><time>2011-04-29T13:14:48Z</time></trkpt>
<trkpt lat="48.63544992" lon="7.00712495"><ele>295.2000121896</ele><time>2011-04-29T13:14:58Z</time></trkpt>
<trkpt lat="48.63521196" lon="7.00714993"><ele>297.0000000552</ele><time>2011-04-29T13:15:07Z</time></trkpt>
<trkpt lat="48.63494500" lon="7.00719394"><ele>298.6000062024</ele><time>2011-04-29T13:15:17Z</time></trkpt>
<trkpt lat="48.63469496" lon="7.00720098"><ele>299.0000001192</ele><time>2011-04-29T13:15:26Z</time></trkpt>
<trkpt lat="48.63445398" lon="7.00712998"><ele>299.2000123176</ele><time>2011-04-29T13:15:35Z</time></trkpt>
<trkpt lat="48.63420194" lon="7.00698699"><ele>299.2000123176</ele><time>2011-04-29T13:15:45Z</time></trkpt>
<trkpt lat="48.63394495" lon="7.00682798"><ele>299.799987648</ele><time>2011-04-29T13:15:55Z</time></trkpt>
<trkpt lat="48.63369299" lon="7.00667392"><ele>300.6000059616</ele><time>2011-04-29T13:16:03Z</time></trkpt>
<trkpt lat="48.63338999" lon="7.00651995"><ele>301.6000059936</ele><time>2011-04-29T13:16:12Z</time></trkpt>
<trkpt lat="48.63311598" lon="7.00639095"><ele>302.2000121088</ele><time>2011-04-29T13:16:20Z</time></trkpt>
<trkpt lat="48.63272195" lon="7.00625793"><ele>302.9999999424</ele><time>2011-04-29T13:16:31Z</time></trkpt>
<trkpt lat="48.63237594" lon="7.00615098"><ele>303.799987776</ele><time>2011-04-29T13:16:41Z</time></trkpt>
<trkpt lat="48.63209297" lon="7.00604394"><ele>304.799987808</ele><time>2011-04-29T13:16:49Z</time></trkpt>
<trkpt lat="48.63168393" lon="7.00584294"><ele>305.79998784</ele><time>2011-04-29T13:17:00Z</time></trkpt>
<trkpt lat="48.63125595" lon="7.00557799"><ele>305.79998784</ele><time>2011-04-29T13:17:11Z</time></trkpt>
<trkpt lat="48.63093895" lon="7.00527700"><ele>306.2000122368</ele><time>2011-04-29T13:17:18Z</time></trkpt>
<trkpt lat="48.63089696" lon="7.00522595"><ele>306.3999939552</ele><time>2011-04-29T13:17:19Z</time></trkpt>
<trkpt lat="48.63063594" lon="7.00465296"><ele>306.2000122368</ele><time>2011-04-29T13:17:28Z</time></trkpt>
<trkpt lat="48.63044199" lon="7.00399096"><ele>306.0000000384</ele><time>2011-04-29T13:17:37Z</time></trkpt>
<trkpt lat="48.63019296" lon="7.00312494"><ele>307.3999939872</ele><time>2011-04-29T13:17:48Z</time></trkpt>
<trkpt lat="48.62995693" lon="7.00232900"><ele>311.7999877272</ele><time>2011-04-29T13:17:58Z</time></trkpt>
<trkpt lat="48.62970698" lon="7.00147999"><ele>317.0000000856</ele><time>2011-04-29T13:18:09Z</time></trkpt>
<trkpt lat="48.62946097" lon="7.00066192"><ele>321.2000121072</ele><time>2011-04-29T13:18:19Z</time></trkpt>
<trkpt lat="48.62927799" lon="7.00002498"><ele>325.600006152</ele><time>2011-04-29T13:18:26Z</time></trkpt>
<trkpt lat="48.62900499" lon="6.99913692"><ele>328.600006248</ele><time>2011-04-29T13:18:35Z</time></trkpt>
<trkpt lat="48.62885194" lon="6.99859595"><ele>324.2000122032</ele><time>2011-04-29T13:18:40Z</time></trkpt>
<trkpt lat="48.62857894" lon="6.99765692"><ele>311.9999999256</ele><time>2011-04-29T13:18:48Z</time></trkpt>
<trkpt lat="48.62830192" lon="6.99664992"><ele>302.2000121088</ele><time>2011-04-29T13:18:56Z</time></trkpt>
<trkpt lat="48.62817795" lon="6.99583394"><ele>300.9999998784</ele><time>2011-04-29T13:19:02Z</time></trkpt>
<trkpt lat="48.62814794" lon="6.99504395"><ele>296.0000000232</ele><time>2011-04-29T13:19:07Z</time></trkpt>
<trkpt lat="48.62822397" lon="6.99412596"><ele>293.399993844</ele><time>2011-04-29T13:19:12Z</time></trkpt>
<trkpt lat="48.62834794" lon="6.99310496"><ele>296.39999394</ele><time>2011-04-29T13:19:18Z</time></trkpt>
<trkpt lat="48.62837593" lon="6.99240793"><ele>298.0000000872</ele><time>2011-04-29T13:19:23Z</time></trkpt>
<trkpt lat="48.62834592" lon="6.99183494"><ele>300.2000123496</ele><time>2011-04-29T13:19:28Z</time></trkpt>
<trkpt lat="48.62824593" lon="6.99114393"><ele>302.799987744</ele><time>2011-04-29T13:19:35Z</time></trkpt>
<trkpt lat="48.62810092" lon="6.99052393"><ele>305.6000061216</ele><time>2011-04-29T13:19:42Z</time></trkpt>
<trkpt lat="48.62790797" lon="6.98983393"><ele>307.3999939872</ele><time>2011-04-29T13:19:51Z</time></trkpt>
<trkpt lat="48.62766498" lon="6.98894897"><ele>307.799987904</ele><time>2011-04-29T13:20:03Z</time></trkpt>
<trkpt lat="48.62748594" lon="6.98828897"><ele>309.9999998616</ele><time>2011-04-29T13:20:12Z</time></trkpt>
<trkpt lat="48.62727497" lon="6.98750996"><ele>311.9999999256</ele><time>2011-04-29T13:20:22Z</time></trkpt>
<trkpt lat="48.62703499" lon="6.98664092"><ele>313.9999999896</ele><time>2011-04-29T13:20:32Z</time></trkpt>
<trkpt lat="48.62680793" lon="6.98580793"><ele>313.3999938744</ele><time>2011-04-29T13:20:41Z</time></trkpt>
<trkpt lat="48.62657499" lon="6.98517594"><ele>311.3999938104</ele><time>2011-04-29T13:20:48Z</time></trkpt>
<trkpt lat="48.62622195" lon="6.98450698"><ele>306.2000122368</ele><time>2011-04-29T13:20:56Z</time></trkpt>
<trkpt lat="48.62584895" lon="6.98401999"><ele>303.3999938592</ele><time>2011-04-29T13:21:03Z</time></trkpt>
<trkpt lat="48.62543900" lon="6.98362294"><ele>302.9999999424</ele><time>2011-04-29T13:21:10Z</time></trkpt>
<trkpt lat="48.62492996" lon="6.98328095"><ele>303.9999999744</ele><time>2011-04-29T13:21:18Z</time></trkpt>
<trkpt lat="48.62420795" lon="6.98286496"><ele>309.0000001344</ele><time>2011-04-29T13:21:29Z</time></trkpt>
<trkpt lat="48.62351099" lon="6.98241695"><ele>309.6000062496</ele><time>2011-04-29T13:21:40Z</time></trkpt>
<trkpt lat="48.62314194" lon="6.98207094"><ele>309.3999937464</ele><time>2011-04-29T13:21:47Z</time></trkpt>
<trkpt lat="48.62260792" lon="6.98151799"><ele>309.7999876632</ele><time>2011-04-29T13:21:58Z</time></trkpt>
<trkpt lat="48.62229796" lon="6.98119596"><ele>310.9999998936</ele><time>2011-04-29T13:22:05Z</time></trkpt>
<trkpt lat="48.62185892" lon="6.98073596"><ele>311.3999938104</ele><time>2011-04-29T13:22:15Z</time></trkpt>
<trkpt lat="48.62140898" lon="6.98020396"><ele>315.20001222</ele><time>2011-04-29T13:22:26Z</time></trkpt>
<trkpt lat="48.62118392" lon="6.97996499"><ele>317.6000062008</ele><time>2011-04-29T13:22:33Z</time></trkpt>
<trkpt lat="48.62110597" lon="6.98011092"><ele>318.3999940344</ele><time>2011-04-29T13:22:37Z</time></trkpt>
<trkpt lat="48.62099793" lon="6.98049598"><ele>319.60000596</ele><time>2011-04-29T13:22:45Z</time></trkpt>
<trkpt lat="48.62095099" lon="6.98065298"><ele>320.3999937936</ele><time>2011-04-29T13:22:48Z</time></trkpt>
<trkpt lat="48.62101796" lon="6.98091500"><ele>319.7999876784</ele><time>2011-04-29T13:22:52Z</time></trkpt>
<trkpt lat="48.62105794" lon="6.98097099"><ele>319.60000596</ele><time>2011-04-29T13:22:53Z</time></trkpt>
<trkpt lat="48.62118493" lon="6.98112194"><ele>318.6000062328</ele><time>2011-04-29T13:22:56Z</time></trkpt>
<trkpt lat="48.62132499" lon="6.98142998"><ele>318.3999940344</ele><time>2011-04-29T13:23:01Z</time></trkpt>
<trkpt lat="48.62149799" lon="6.98194697"><ele>318.3999940344</ele><time>2011-04-29T13:23:10Z</time></trkpt>
<trkpt lat="48.62158994" lon="6.98221092"><ele>318.0000001176</ele><time>2011-04-29T13:23:17Z</time></trkpt>
<trkpt lat="48.62167393" lon="6.98242893"><ele>317.7999879192</ele><time>2011-04-29T13:23:22Z</time></trkpt>
<trkpt lat="48.62177099" lon="6.98276698"><ele>317.200012284</ele><time>2011-04-29T13:23:29Z</time></trkpt>
<trkpt lat="48.62188993" lon="6.98306395"><ele>316.3999939704</ele><time>2011-04-29T13:23:36Z</time></trkpt>
<trkpt lat="48.62204298" lon="6.98331993"><ele>315.6000061368</ele><time>2011-04-29T13:23:41Z</time></trkpt>
<trkpt lat="48.62217592" lon="6.98351699"><ele>314.7999878232</ele><time>2011-04-29T13:23:44Z</time></trkpt>
<trkpt lat="48.62248697" lon="6.98378295"><ele>312.9999999576</ele><time>2011-04-29T13:23:49Z</time></trkpt>
<trkpt lat="48.62262293" lon="6.98387800"><ele>312.200012124</ele><time>2011-04-29T13:23:51Z</time></trkpt>
<trkpt lat="48.62287799" lon="6.98424798"><ele>310.7999876952</ele><time>2011-04-29T13:23:56Z</time></trkpt>
<trkpt lat="48.62312593" lon="6.98475994"><ele>309.7999876632</ele><time>2011-04-29T13:24:03Z</time></trkpt>
<trkpt lat="48.62315694" lon="6.98482398"><ele>309.7999876632</ele><time>2011-04-29T13:24:04Z</time></trkpt>
<trkpt lat="48.62313297" lon="6.98506496"><ele>310.20001206</ele><time>2011-04-29T13:24:08Z</time></trkpt>
<trkpt lat="48.62310799" lon="6.98508793"><ele>310.3999937784</ele><time>2011-04-29T13:24:09Z</time></trkpt>
<trkpt lat="48.62288796" lon="6.98528398"><ele>312.3999938424</ele><time>2011-04-29T13:24:16Z</time></trkpt>
<trkpt lat="48.62247499" lon="6.98565396"><ele>316.3999939704</ele><time>2011-04-29T13:24:28Z</time></trkpt>
<trkpt lat="48.62212496" lon="6.98596392"><ele>318.7999876464</ele><time>2011-04-29T13:24:38Z</time></trkpt>
<trkpt lat="48.62185892" lon="6.98622099"><ele>321.2000121072</ele><time>2011-04-29T13:24:46Z</time></trkpt>
<trkpt lat="48.62148995" lon="6.98655300"><ele>325.600006152</ele><time>2011-04-29T13:24:57Z</time></trkpt>
<trkpt lat="48.62127193" lon="6.98662994"><ele>327.600006216</ele><time>2011-04-29T13:25:03Z</time></trkpt>
<trkpt lat="48.62102794" lon="6.98674997"><ele>330.2000120904</ele><time>2011-04-29T13:25:10Z</time></trkpt>
<trkpt lat="48.62089894" lon="6.98701392"><ele>332.7999877896</ele><time>2011-04-29T13:25:16Z</time></trkpt>
<trkpt lat="48.62073499" lon="6.98725498"><ele>334.00000002</ele><time>2011-04-29T13:25:22Z</time></trkpt>
<trkpt lat="48.62055293" lon="6.98743695"><ele>334.6000061352</ele><time>2011-04-29T13:25:28Z</time></trkpt>
<trkpt lat="48.62035596" lon="6.98761398"><ele>334.6000061352</ele><time>2011-04-29T13:25:35Z</time></trkpt>
<trkpt lat="48.62010400" lon="6.98781196"><ele>334.3999939368</ele><time>2011-04-29T13:25:43Z</time></trkpt>
<trkpt lat="48.62003099" lon="6.98781699"><ele>334.2000122184</ele><time>2011-04-29T13:25:45Z</time></trkpt>
<trkpt lat="48.61994097" lon="6.98764399"><ele>333.7999878216</ele><time>2011-04-29T13:25:50Z</time></trkpt>
<trkpt lat="48.61981097" lon="6.98731894"><ele>334.2000122184</ele><time>2011-04-29T13:25:57Z</time></trkpt>
<trkpt lat="48.61978398" lon="6.98728197"><ele>334.3999939368</ele><time>2011-04-29T13:25:58Z</time></trkpt>
<trkpt lat="48.61964199" lon="6.98728600"><ele>336.2000122824</ele><time>2011-04-29T13:26:02Z</time></trkpt>
<trkpt lat="48.61948298" lon="6.98740795"><ele>338.000000148</ele><time>2011-04-29T13:26:06Z</time></trkpt>
<trkpt lat="48.61929397" lon="6.98761197"><ele>338.9999998752</ele><time>2011-04-29T13:26:11Z</time></trkpt>
<trkpt lat="48.61924896" lon="6.98765798"><ele>339.2000120736</ele><time>2011-04-29T13:26:12Z</time></trkpt>
<trkpt lat="48.61909993" lon="6.98778698"><ele>338.9999998752</ele><time>2011-04-29T13:26:15Z</time></trkpt>
<trkpt lat="48.61898392" lon="6.98786393"><ele>338.6000059584</ele><time>2011-04-29T13:26:17Z</time></trkpt>
<trkpt lat="48.61866600" lon="6.98791497"><ele>339.2000120736</ele><time>2011-04-29T13:26:22Z</time></trkpt>
<trkpt lat="48.61856299" lon="6.98800793"><ele>338.9999998752</ele><time>2011-04-29T13:26:24Z</time></trkpt>
<trkpt lat="48.61832997" lon="6.98850397"><ele>339.2000120736</ele><time>2011-04-29T13:26:31Z</time></trkpt>
<trkpt lat="48.61836492" lon="6.98865694"><ele>338.9999998752</ele><time>2011-04-29T13:26:33Z</time></trkpt>
<trkpt lat="48.61845695" lon="6.98915298"><ele>338.2000123464</ele><time>2011-04-29T13:26:39Z</time></trkpt>
<trkpt lat="48.61856692" lon="6.98940595"><ele>337.3999940328</ele><time>2011-04-29T13:26:43Z</time></trkpt>
<trkpt lat="48.61872593" lon="6.98967995"><ele>335.3999939688</ele><time>2011-04-29T13:26:47Z</time></trkpt>
<trkpt lat="48.61878594" lon="6.98983694"><ele>334.6000061352</ele><time>2011-04-29T13:26:49Z</time></trkpt>
<trkpt lat="48.61877094" lon="6.99016795"><ele>335.3999939688</ele><time>2011-04-29T13:26:53Z</time></trkpt>
<trkpt lat="48.61881394" lon="6.99039996"><ele>335.2000122504</ele><time>2011-04-29T13:26:57Z</time></trkpt>
<trkpt lat="48.61892098" lon="6.99072492"><ele>334.00000002</ele><time>2011-04-29T13:27:01Z</time></trkpt>
<trkpt lat="48.61893900" lon="6.99097395"><ele>334.00000002</ele><time>2011-04-29T13:27:04Z</time></trkpt>
<trkpt lat="48.61897697" lon="6.99119800"><ele>333.7999878216</ele><time>2011-04-29T13:27:07Z</time></trkpt>
<trkpt lat="48.61894294" lon="6.99144292"><ele>334.7999878536</ele><time>2011-04-29T13:27:10Z</time></trkpt>
<trkpt lat="48.61890195" lon="6.99149698"><ele>335.6000061672</ele><time>2011-04-29T13:27:11Z</time></trkpt>
<trkpt lat="48.61869995" lon="6.99187400"><ele>337.2000123144</ele><time>2011-04-29T13:27:17Z</time></trkpt>
<trkpt lat="48.61858293" lon="6.99203392"><ele>337.3999940328</ele><time>2011-04-29T13:27:20Z</time></trkpt>
<trkpt lat="48.61843399" lon="6.99216896"><ele>337.6000062312</ele><time>2011-04-29T13:27:24Z</time></trkpt>
<trkpt lat="48.61824095" lon="6.99234892"><ele>337.3999940328</ele><time>2011-04-29T13:27:28Z</time></trkpt>
<trkpt lat="48.61818295" lon="6.99238898"><ele>337.3999940328</ele><time>2011-04-29T13:27:29Z</time></trkpt>
<trkpt lat="48.61792294" lon="6.99268495"><ele>336.2000122824</ele><time>2011-04-29T13:27:34Z</time></trkpt>
<trkpt lat="48.61783493" lon="6.99300597"><ele>334.2000122184</ele><time>2011-04-29T13:27:37Z</time></trkpt>
<trkpt lat="48.61773997" lon="6.99334494"><ele>331.999999956</ele><time>2011-04-29T13:27:40Z</time></trkpt>
<trkpt lat="48.61783200" lon="6.99361693"><ele>333.3999939048</ele><time>2011-04-29T13:27:44Z</time></trkpt>
<trkpt lat="48.61801900" lon="6.99375699"><ele>333.7999878216</ele><time>2011-04-29T13:27:48Z</time></trkpt>
<trkpt lat="48.61815093" lon="6.99379295"><ele>333.7999878216</ele><time>2011-04-29T13:27:50Z</time></trkpt>
<trkpt lat="48.61842100" lon="6.99413200"><ele>334.2000122184</ele><time>2011-04-29T13:27:55Z</time></trkpt>
<trkpt lat="48.61844296" lon="6.99431900"><ele>334.3999939368</ele><time>2011-04-29T13:27:57Z</time></trkpt>
<trkpt lat="48.61858293" lon="6.99460398"><ele>334.2000122184</ele><time>2011-04-29T13:28:02Z</time></trkpt>
<trkpt lat="48.61864094" lon="6.99463994"><ele>334.00000002</ele><time>2011-04-29T13:28:03Z</time></trkpt>
<trkpt lat="48.61888192" lon="6.99477296"><ele>333.2000121864</ele><time>2011-04-29T13:28:07Z</time></trkpt>
<trkpt lat="48.61914192" lon="6.99507396"><ele>333.3999939048</ele><time>2011-04-29T13:28:12Z</time></trkpt>
<trkpt lat="48.61924594" lon="6.99515300"><ele>333.2000121864</ele><time>2011-04-29T13:28:14Z</time></trkpt>
<trkpt lat="48.61940495" lon="6.99528895"><ele>333.2000121864</ele><time>2011-04-29T13:28:17Z</time></trkpt>
<trkpt lat="48.61963495" lon="6.99544192"><ele>332.7999877896</ele><time>2011-04-29T13:28:21Z</time></trkpt>
<trkpt lat="48.61979194" lon="6.99560294"><ele>332.7999877896</ele><time>2011-04-29T13:28:24Z</time></trkpt>
<trkpt lat="48.61999193" lon="6.99568399"><ele>332.2000121544</ele><time>2011-04-29T13:28:28Z</time></trkpt>
<trkpt lat="48.62008799" lon="6.99589698"><ele>332.7999877896</ele><time>2011-04-29T13:28:31Z</time></trkpt>
<trkpt lat="48.62022998" lon="6.99592497"><ele>332.3999938728</ele><time>2011-04-29T13:28:34Z</time></trkpt>
<trkpt lat="48.62041396" lon="6.99588692"><ele>331.6000060392</ele><time>2011-04-29T13:28:37Z</time></trkpt>
<trkpt lat="48.62061295" lon="6.99604400"><ele>331.3999938408</ele><time>2011-04-29T13:28:40Z</time></trkpt>
<trkpt lat="48.62079400" lon="6.99614994"><ele>331.2000121224</ele><time>2011-04-29T13:28:43Z</time></trkpt>
<trkpt lat="48.62085099" lon="6.99618598"><ele>331.2000121224</ele><time>2011-04-29T13:28:44Z</time></trkpt>
<trkpt lat="48.62109792" lon="6.99632999"><ele>331.7999877576</ele><time>2011-04-29T13:28:48Z</time></trkpt>
<trkpt lat="48.62144192" lon="6.99652495"><ele>332.6000060712</ele><time>2011-04-29T13:28:54Z</time></trkpt>
<trkpt lat="48.62155398" lon="6.99656493"><ele>332.6000060712</ele><time>2011-04-29T13:28:56Z</time></trkpt>
<trkpt lat="48.62174794" lon="6.99678797"><ele>332.3999938728</ele><time>2011-04-29T13:29:00Z</time></trkpt>
<trkpt lat="48.62188398" lon="6.99716994"><ele>331.6000060392</ele><time>2011-04-29T13:29:05Z</time></trkpt>
<trkpt lat="48.62192497" lon="6.99737999"><ele>331.3999938408</ele><time>2011-04-29T13:29:09Z</time></trkpt>
<trkpt lat="48.62189798" lon="6.99756095"><ele>331.999999956</ele><time>2011-04-29T13:29:13Z</time></trkpt>
<trkpt lat="48.62193695" lon="6.99778995"><ele>332.3999938728</ele><time>2011-04-29T13:29:17Z</time></trkpt>
<trkpt lat="48.62206595" lon="6.99801693"><ele>332.2000121544</ele><time>2011-04-29T13:29:23Z</time></trkpt>
<trkpt lat="48.62220593" lon="6.99820099"><ele>331.7999877576</ele><time>2011-04-29T13:29:28Z</time></trkpt>
<trkpt lat="48.62233593" lon="6.99837794"><ele>331.6000060392</ele><time>2011-04-29T13:29:32Z</time></trkpt>
<trkpt lat="48.62241598" lon="6.99846092"><ele>331.3999938408</ele><time>2011-04-29T13:29:34Z</time></trkpt>
<trkpt lat="48.62251799" lon="6.99870500"><ele>331.999999956</ele><time>2011-04-29T13:29:38Z</time></trkpt>
<trkpt lat="48.62260994" lon="6.99903994"><ele>333.2000121864</ele><time>2011-04-29T13:29:44Z</time></trkpt>
<trkpt lat="48.62256895" lon="6.99908596"><ele>333.7999878216</ele><time>2011-04-29T13:29:47Z</time></trkpt>
<trkpt lat="48.62255193" lon="6.99908394"><ele>333.7999878216</ele><time>2011-04-29T13:29:48Z</time></trkpt>
</trkseg></trk></gpx>